Wetterdaten: Samstag, 04.09.2021
Datum Zeit Temp. Aussen Temp. o. S. Temp +5cm Feuchte Auss Luftdruck Regen Sonnenschein Regendauer Solar Windben Empfang
04.09.2021 00:00 17,6 C 16,7 C 14,5 C 85 % 1018,7 hPa 0,0 l/m 0 min 0 min 0 W/m 3,2 km/h (1 Bft) 93,62 %
04.09.2021 00:02 17,6 C 16,7 C 14,5 C 85 % 1018,7 hPa 0,0 l/m 0 min 0 min 0 W/m 6,4 km/h (2 Bft) 97,73 %
04.09.2021 00:04 17,5 C 16,7 C 14,5 C 85 % 1018,7 hPa 0,0 l/m 0 min 0 min 0 W/m 3,2 km/h (1 Bft) 97,87 %
04.09.2021 00:08 17,5 C 16,7 C 14,5 C 85 % 1018,8 hPa 0,0 l/m 0 min 0 min 0 W/m 3,2 km/h (1 Bft) 97,56 %
04.09.2021 00:10 17,5 C 16,7 C 14,5 C 85 % 1018,8 hPa 0,0 l/m 0 min 0 min 0 W/m 3,2 km/h (1 Bft) 95,74 %
04.09.2021 00:12 17,5 C 16,7 C 14,5 C 85 % 1018,8 hPa 0,0 l/m 0 min 0 min 0 W/m 3,2 km/h (1 Bft) 97,83 %
04.09.2021 00:14 17,5 C 16,7 C 14,5 C 85 % 1018,8 hPa 0,0 l/m 0 min 0 min 0 W/m 6,4 km/h (2 Bft) 97,87 %
04.09.2021 00:16 17,4 C 16,7 C 14,5 C 85 % 1018,8 hPa 0,0 l/m 0 min 0 min 0 W/m 3,2 km/h (1 Bft) 45,95 %
04.09.2021 00:18 17,4 C 16,7 C 14,5 C 85 % 1018,8 hPa 0,0 l/m 0 min 0 min 0 W/m 6,4 km/h (2 Bft) 100,00 %
04.09.2021 00:20 17,4 C 16,7 C 14,5 C 85 % 1018,7 hPa 0,0 l/m 0 min 0 min 0 W/m 9,7 km/h (2 Bft) 100,00 %
04.09.2021 00:22 17,4 C 16,7 C 14,5 C 85 % 1018,7 hPa 0,0 l/m 0 min 0 min 0 W/m 3,2 km/h (1 Bft) 100,00 %
04.09.2021 00:24 17,4 C 16,7 C 14,5 C 85 % 1018,7 hPa 0,0 l/m 0 min 0 min 0 W/m 6,4 km/h (2 Bft) 97,87 %
04.09.2021 00:26 17,4 C 16,7 C 14,5 C 85 % 1018,7 hPa 0,0 l/m 0 min 0 min 0 W/m 9,7 km/h (2 Bft) 97,87 %
04.09.2021 00:28 17,4 C 16,7 C 14,5 C 85 % 1018,7 hPa 0,0 l/m 0 min 0 min 0 W/m 6,4 km/h (2 Bft) 100,00 %
04.09.2021 00:30 17,3 C 16,7 C 14,5 C 85 % 1018,7 hPa 0,0 l/m 0 min 0 min 0 W/m 6,4 km/h (2 Bft) 100,00 %
04.09.2021 00:32 17,3 C 16,7 C 14,5 C 86 % 1018,7 hPa 0,0 l/m 0 min 0 min 0 W/m 12,9 km/h (3 Bft) 100,00 %
04.09.2021 00:34 17,3 C 16,7 C 14,5 C 86 % 1018,7 hPa 0,0 l/m 0 min 0 min 0 W/m 12,9 km/h (3 Bft) 100,00 %
04.09.2021 00:36 17,3 C 16,1 C 14,5 C 86 % 1018,7 hPa 0,0 l/m 0 min 0 min 0 W/m 6,4 km/h (2 Bft) 100,00 %
04.09.2021 00:38 17,3 C 16,1 C 14,5 C 86 % 1018,7 hPa 0,0 l/m 0 min 0 min 0 W/m 6,4 km/h (2 Bft) 100,00 %
04.09.2021 00:40 17,3 C 16,1 C 14,5 C 86 % 1018,7 hPa 0,0 l/m 0 min 0 min 0 W/m 6,4 km/h (2 Bft) 100,00 %
04.09.2021 00:42 17,2 C 16,1 C 14,5 C 86 % 1018,7 hPa 0,0 l/m 0 min 0 min 0 W/m 6,4 km/h (2 Bft) 97,87 %
04.09.2021 00:44 17,2 C 16,1 C 14,5 C 86 % 1018,7 hPa 0,0 l/m 0 min 0 min 0 W/m 6,4 km/h (2 Bft) 100,00 %
04.09.2021 00:46 17,2 C 16,1 C 14,5 C 86 % 1018,7 hPa 0,0 l/m 0 min 0 min 0 W/m 3,2 km/h (1 Bft) 100,00 %
04.09.2021 00:48 17,2 C 16,1 C 14,5 C 86 % 1018,7 hPa 0,0 l/m 0 min 0 min 0 W/m 0,0 km/h (0 Bft) 100,00 %
04.09.2021 00:50 17,1 C 16,1 C 14,5 C 86 % 1018,7 hPa 0,0 l/m 0 min 0 min 0 W/m 3,2 km/h (1 Bft) 100,00 %
04.09.2021 00:52 17,1 C 16,1 C 14,5 C 86 % 1018,8 hPa 0,0 l/m 0 min 0 min 0 W/m 3,2 km/h (1 Bft) 97,87 %
04.09.2021 00:54 17,1 C 16,1 C 14,5 C 86 % 1018,7 hPa 0,0 l/m 0 min 0 min 0 W/m 6,4 km/h (2 Bft) 100,00 %
04.09.2021 00:56 17,1 C 16,1 C 13,9 C 86 % 1018,7 hPa 0,0 l/m 0 min 0 min 0 W/m 6,4 km/h (2 Bft) 95,74 %
04.09.2021 00:58 17,0 C 16,1 C 13,9 C 86 % 1018,7 hPa 0,0 l/m 0 min 0 min 0 W/m 3,2 km/h (1 Bft) 97,83 %
04.09.2021 01:00 17,0 C 16,1 C 13,9 C 86 % 1018,7 hPa 0,0 l/m 0 min 0 min 0 W/m 6,4 km/h (2 Bft) 100,00 %
04.09.2021 01:02 17,0 C 16,1 C 14,5 C 86 % 1018,7 hPa 0,0 l/m 0 min 0 min 0 W/m 3,2 km/h (1 Bft) 98,11 %
04.09.2021 01:04 17,0 C 16,1 C 14,5 C 86 % 1018,7 hPa 0,0 l/m 0 min 0 min 0 W/m 6,4 km/h (2 Bft) 97,87 %
04.09.2021 01:06 17,0 C 16,1 C 13,9 C 86 % 1018,7 hPa 0,0 l/m 0 min 0 min 0 W/m 3,2 km/h (1 Bft) 97,87 %
04.09.2021 01:08 17,0 C 16,1 C 13,9 C 86 % 1018,7 hPa 0,0 l/m 0 min 0 min 0 W/m 3,2 km/h (1 Bft) 95,74 %
04.09.2021 01:10 16,9 C 16,1 C 13,9 C 87 % 1018,7 hPa 0,0 l/m 0 min 0 min 0 W/m 3,2 km/h (1 Bft) 97,96 %
04.09.2021 01:12 16,9 C 16,1 C 13,9 C 87 % 1018,6 hPa 0,0 l/m 0 min 0 min 0 W/m 3,2 km/h (1 Bft) 97,87 %
04.09.2021 01:14 16,9 C 16,1 C 13,9 C 87 % 1018,6 hPa 0,0 l/m 0 min 0 min 0 W/m 9,7 km/h (2 Bft) 97,87 %
04.09.2021 01:16 16,9 C 16,1 C 13,9 C 87 % 1018,6 hPa 0,0 l/m 0 min 0 min 0 W/m 6,4 km/h (2 Bft) 93,62 %
04.09.2021 01:18 16,9 C 16,1 C 13,9 C 87 % 1018,6 hPa 0,0 l/m 0 min 0 min 0 W/m 6,4 km/h (2 Bft) 95,74 %
04.09.2021 01:20 16,8 C 16,1 C 13,9 C 87 % 1018,6 hPa 0,0 l/m 0 min 0 min 0 W/m 3,2 km/h (1 Bft) 95,65 %
04.09.2021 01:22 16,8 C 16,1 C 13,9 C 87 % 1018,6 hPa 0,0 l/m 0 min 0 min 0 W/m 3,2 km/h (1 Bft) 95,74 %
04.09.2021 01:24 16,8 C 15,6 C 13,9 C 87 % 1018,6 hPa 0,0 l/m 0 min 0 min 0 W/m 3,2 km/h (1 Bft) 95,74 %
04.09.2021 01:26 16,8 C 15,6 C 13,9 C 87 % 1018,6 hPa 0,0 l/m 0 min 0 min 0 W/m 3,2 km/h (1 Bft) 93,62 %
04.09.2021 01:28 16,8 C 15,6 C 13,9 C 87 % 1018,6 hPa 0,0 l/m 0 min 0 min 0 W/m 3,2 km/h (1 Bft) 95,74 %
04.09.2021 01:30 16,8 C 15,6 C 13,9 C 87 % 1018,6 hPa 0,0 l/m 0 min 0 min 0 W/m 3,2 km/h (1 Bft) 95,74 %
04.09.2021 01:32 16,7 C 15,6 C 13,9 C 87 % 1018,7 hPa 0,0 l/m 0 min 0 min 0 W/m 3,2 km/h (1 Bft) 95,74 %
04.09.2021 01:34 16,7 C 15,6 C 13,9 C 87 % 1018,7 hPa 0,0 l/m 0 min 0 min 0 W/m 3,2 km/h (1 Bft) 93,62 %
04.09.2021 01:36 16,7 C 15,6 C 13,9 C 87 % 1018,7 hPa 0,0 l/m 0 min 0 min 0 W/m 0,0 km/h (0 Bft) 95,74 %
04.09.2021 01:38 16,6 C 15,6 C 13,9 C 88 % 1018,7 hPa 0,0 l/m 0 min 0 min 0 W/m 3,2 km/h (1 Bft) 97,96 %
04.09.2021 01:40 16,6 C 15,6 C 13,9 C 88 % 1018,6 hPa 0,0 l/m 0 min 0 min 0 W/m 6,4 km/h (2 Bft) 95,65 %
04.09.2021 01:42 16,6 C 15,6 C 13,9 C 88 % 1018,6 hPa 0,0 l/m 0 min 0 min 0 W/m 3,2 km/h (1 Bft) 93,62 %
04.09.2021 01:44 16,6 C 15,6 C 13,9 C 88 % 1018,6 hPa 0,0 l/m 0 min 0 min 0 W/m 12,9 km/h (3 Bft) 95,74 %
04.09.2021 01:46 16,6 C 15,6 C 13,9 C 88 % 1018,6 hPa 0,0 l/m 0 min 0 min 0 W/m 3,2 km/h (1 Bft) 97,87 %
04.09.2021 01:48 16,5 C 15,6 C 13,9 C 88 % 1018,6 hPa 0,0 l/m 0 min 0 min 0 W/m 3,2 km/h (1 Bft) 95,74 %
04.09.2021 01:50 16,5 C 15,6 C 13,9 C 88 % 1018,6 hPa 0,0 l/m 0 min 0 min 0 W/m 3,2 km/h (1 Bft) 95,74 %
04.09.2021 01:52 16,5 C 15,6 C 13,9 C 88 % 1018,6 hPa 0,0 l/m 0 min 0 min 0 W/m 6,4 km/h (2 Bft) 95,65 %
04.09.2021 01:54 16,5 C 15,6 C 13,9 C 88 % 1018,7 hPa 0,0 l/m 0 min 0 min 0 W/m 6,4 km/h (2 Bft) 97,87 %
04.09.2021 01:56 16,5 C 15,6 C 13,9 C 88 % 1018,6 hPa 0,0 l/m 0 min 0 min 0 W/m 6,4 km/h (2 Bft) 100,00 %
04.09.2021 01:58 16,5 C 15,6 C 13,9 C 88 % 1018,6 hPa 0,0 l/m 0 min 0 min 0 W/m 3,2 km/h (1 Bft) 95,74 %
04.09.2021 02:00 16,5 C 15,6 C 13,9 C 88 % 1018,6 hPa 0,0 l/m 0 min 0 min 0 W/m 3,2 km/h (1 Bft) 97,87 %
04.09.2021 02:02 16,5 C 15,6 C 13,9 C 88 % 1018,6 hPa 0,0 l/m 0 min 0 min 0 W/m 3,2 km/h (1 Bft) 95,74 %
04.09.2021 02:04 16,4 C 15,6 C 13,9 C 88 % 1018,6 hPa 0,0 l/m 0 min 0 min 0 W/m 0,0 km/h (0 Bft) 95,65 %
04.09.2021 02:06 16,4 C 15,6 C 13,9 C 88 % 1018,6 hPa 0,0 l/m 0 min 0 min 0 W/m 3,2 km/h (1 Bft) 95,74 %
04.09.2021 02:08 16,4 C 15,6 C 13,4 C 88 % 1018,6 hPa 0,0 l/m 0 min 0 min 0 W/m 3,2 km/h (1 Bft) 97,14 %
04.09.2021 02:10 16,4 C 15,6 C 13,4 C 88 % 1018,5 hPa 0,0 l/m 0 min 0 min 0 W/m 3,2 km/h (1 Bft) 96,36 %
04.09.2021 02:12 16,4 C 15,6 C 13,4 C 88 % 1018,5 hPa 0,0 l/m 0 min 0 min 0 W/m 3,2 km/h (1 Bft) 97,87 %
04.09.2021 02:14 16,4 C 15,0 C 13,4 C 89 % 1018,5 hPa 0,0 l/m 0 min 0 min 0 W/m 0,0 km/h (0 Bft) 95,74 %
04.09.2021 02:16 16,3 C 15,0 C 13,4 C 89 % 1018,4 hPa 0,0 l/m 0 min 0 min 0 W/m 3,2 km/h (1 Bft) 97,87 %
04.09.2021 02:18 16,3 C 15,0 C 13,4 C 89 % 1018,4 hPa 0,0 l/m 0 min 0 min 0 W/m 3,2 km/h (1 Bft) 97,87 %
04.09.2021 02:20 16,3 C 15,0 C 13,4 C 89 % 1018,4 hPa 0,0 l/m 0 min 0 min 0 W/m 6,4 km/h (2 Bft) 95,65 %
04.09.2021 02:22 16,3 C 15,0 C 13,4 C 89 % 1018,4 hPa 0,0 l/m 0 min 0 min 0 W/m 0,0 km/h (0 Bft) 97,87 %
04.09.2021 02:24 16,3 C 15,0 C 13,4 C 89 % 1018,4 hPa 0,0 l/m 0 min 0 min 0 W/m 0,0 km/h (0 Bft) 97,87 %
04.09.2021 02:26 16,2 C 15,0 C 13,4 C 89 % 1018,4 hPa 0,0 l/m 0 min 0 min 0 W/m 0,0 km/h (0 Bft) 97,87 %
04.09.2021 02:28 16,2 C 15,0 C 13,4 C 89 % 1018,4 hPa 0,0 l/m 0 min 0 min 0 W/m 0,0 km/h (0 Bft) 97,87 %
04.09.2021 02:30 16,1 C 15,0 C 13,4 C 89 % 1018,4 hPa 0,0 l/m 0 min 0 min 0 W/m 3,2 km/h (1 Bft) 95,65 %
04.09.2021 02:32 16,1 C 15,0 C 13,4 C 89 % 1018,4 hPa 0,0 l/m 0 min 0 min 0 W/m 0,0 km/h (0 Bft) 97,92 %
04.09.2021 02:34 16,1 C 15,0 C 13,4 C 89 % 1018,4 hPa 0,0 l/m 0 min 0 min 0 W/m 0,0 km/h (0 Bft) 97,87 %
04.09.2021 02:36 16,1 C 15,0 C 13,4 C 89 % 1018,4 hPa 0,0 l/m 0 min 0 min 0 W/m 0,0 km/h (0 Bft) 97,87 %
04.09.2021 02:38 16,1 C 15,0 C 13,4 C 89 % 1018,4 hPa 0,0 l/m 0 min 0 min 0 W/m 0,0 km/h (0 Bft) 100,00 %
04.09.2021 02:40 16,0 C 15,0 C 13,4 C 89 % 1018,4 hPa 0,0 l/m 0 min 0 min 0 W/m 3,2 km/h (1 Bft) 100,00 %
04.09.2021 02:42 16,0 C 15,0 C 13,4 C 89 % 1018,3 hPa 0,0 l/m 0 min 0 min 0 W/m 3,2 km/h (1 Bft) 100,00 %
04.09.2021 02:44 16,0 C 14,4 C 13,4 C 89 % 1018,3 hPa 0,0 l/m 0 min 0 min 0 W/m 0,0 km/h (0 Bft) 100,00 %
04.09.2021 02:46 16,0 C 14,4 C 13,4 C 89 % 1018,4 hPa 0,0 l/m 0 min 0 min 0 W/m 0,0 km/h (0 Bft) 100,00 %
04.09.2021 02:48 16,0 C 14,4 C 13,4 C 89 % 1018,4 hPa 0,0 l/m 0 min 0 min 0 W/m 0,0 km/h (0 Bft) 100,00 %
04.09.2021 02:50 15,9 C 14,4 C 13,4 C 89 % 1018,4 hPa 0,0 l/m 0 min 0 min 0 W/m 0,0 km/h (0 Bft) 100,00 %
04.09.2021 02:52 15,9 C 14,4 C 13,4 C 90 % 1018,4 hPa 0,0 l/m 0 min 0 min 0 W/m 0,0 km/h (0 Bft) 100,00 %
04.09.2021 02:54 15,9 C 14,4 C 13,4 C 89 % 1018,4 hPa 0,0 l/m 0 min 0 min 0 W/m 3,2 km/h (1 Bft) 97,87 %
04.09.2021 02:56 15,9 C 14,4 C 13,4 C 90 % 1018,3 hPa 0,0 l/m 0 min 0 min 0 W/m 3,2 km/h (1 Bft) 100,00 %
04.09.2021 02:58 15,9 C 14,4 C 13,4 C 90 % 1018,3 hPa 0,0 l/m 0 min 0 min 0 W/m 3,2 km/h (1 Bft) 100,00 %
04.09.2021 03:00 15,8 C 14,4 C 13,4 C 90 % 1018,3 hPa 0,0 l/m 0 min 0 min 0 W/m 3,2 km/h (1 Bft) 100,00 %
04.09.2021 03:02 15,8 C 14,4 C 13,4 C 90 % 1018,3 hPa 0,0 l/m 0 min 0 min 0 W/m 0,0 km/h (0 Bft) 100,00 %
04.09.2021 03:04 15,8 C 14,4 C 13,4 C 90 % 1018,3 hPa 0,0 l/m 0 min 0 min 0 W/m 0,0 km/h (0 Bft) 97,87 %
04.09.2021 03:06 15,8 C 14,4 C 13,4 C 90 % 1018,3 hPa 0,0 l/m 0 min 0 min 0 W/m 0,0 km/h (0 Bft) 97,87 %
04.09.2021 03:08 15,8 C 14,4 C 13,4 C 90 % 1018,3 hPa 0,0 l/m 0 min 0 min 0 W/m 0,0 km/h (0 Bft) 97,87 %
04.09.2021 03:10 15,7 C 14,4 C 13,4 C 90 % 1018,3 hPa 0,0 l/m 0 min 0 min 0 W/m 0,0 km/h (0 Bft) 97,87 %
04.09.2021 03:12 15,7 C 14,4 C 13,4 C 90 % 1018,3 hPa 0,0 l/m 0 min 0 min 0 W/m 0,0 km/h (0 Bft) 97,87 %
04.09.2021 03:14 15,7 C 14,4 C 12,8 C 90 % 1018,3 hPa 0,0 l/m 0 min 0 min 0 W/m 0,0 km/h (0 Bft) 95,65 %
04.09.2021 03:16 15,6 C 14,4 C 12,8 C 90 % 1018,3 hPa 0,0 l/m 0 min 0 min 0 W/m 0,0 km/h (0 Bft) 95,74 %
04.09.2021 03:18 15,6 C 14,4 C 12,8 C 90 % 1018,3 hPa 0,0 l/m 0 min 0 min 0 W/m 3,2 km/h (1 Bft) 97,87 %
04.09.2021 03:20 15,6 C 14,4 C 12,8 C 90 % 1018,2 hPa 0,0 l/m 0 min 0 min 0 W/m 0,0 km/h (0 Bft) 97,87 %
04.09.2021 03:22 15,6 C 14,4 C 12,8 C 90 % 1018,2 hPa 0,0 l/m 0 min 0 min 0 W/m 3,2 km/h (1 Bft) 97,87 %
04.09.2021 03:24 15,6 C 14,4 C 12,8 C 90 % 1018,3 hPa 0,0 l/m 0 min 0 min 0 W/m 0,0 km/h (0 Bft) 97,87 %
04.09.2021 03:26 15,5 C 14,4 C 12,8 C 90 % 1018,2 hPa 0,0 l/m 0 min 0 min 0 W/m 0,0 km/h (0 Bft) 97,83 %
04.09.2021 03:28 15,5 C 14,4 C 12,8 C 90 % 1018,2 hPa 0,0 l/m 0 min 0 min 0 W/m 0,0 km/h (0 Bft) 97,87 %
04.09.2021 03:30 15,5 C 14,4 C 12,8 C 90 % 1018,2 hPa 0,0 l/m 0 min 0 min 0 W/m 0,0 km/h (0 Bft) 97,87 %
04.09.2021 03:32 15,5 C 13,9 C 12,8 C 91 % 1018,2 hPa 0,0 l/m 0 min 0 min 0 W/m 3,2 km/h (1 Bft) 97,87 %
04.09.2021 03:34 15,5 C 13,9 C 12,8 C 91 % 1018,2 hPa 0,0 l/m 0 min 0 min 0 W/m 0,0 km/h (0 Bft) 97,87 %
04.09.2021 03:36 15,4 C 13,9 C 12,8 C 91 % 1018,2 hPa 0,0 l/m 0 min 0 min 0 W/m 0,0 km/h (0 Bft) 100,00 %
04.09.2021 03:38 15,4 C 13,9 C 12,8 C 91 % 1018,2 hPa 0,0 l/m 0 min 0 min 0 W/m 3,2 km/h (1 Bft) 100,00 %
04.09.2021 03:40 15,4 C 13,9 C 12,8 C 91 % 1018,2 hPa 0,0 l/m 0 min 0 min 0 W/m 3,2 km/h (1 Bft) 100,00 %
04.09.2021 03:42 15,4 C 13,9 C 12,8 C 91 % 1018,2 hPa 0,0 l/m 0 min 0 min 0 W/m 3,2 km/h (1 Bft) 97,87 %
04.09.2021 03:44 15,3 C 13,9 C 12,8 C 91 % 1018,2 hPa 0,0 l/m 0 min 0 min 0 W/m 0,0 km/h (0 Bft) 100,00 %
04.09.2021 03:46 15,3 C 13,9 C 12,8 C 91 % 1018,2 hPa 0,0 l/m 0 min 0 min 0 W/m 0,0 km/h (0 Bft) 100,00 %
04.09.2021 03:48 15,3 C 13,9 C 12,8 C 91 % 1018,1 hPa 0,0 l/m 0 min 0 min 0 W/m 3,2 km/h (1 Bft) 97,83 %
04.09.2021 03:50 15,3 C 13,9 C 12,8 C 91 % 1018,2 hPa 0,0 l/m 0 min 0 min 0 W/m 3,2 km/h (1 Bft) 100,00 %
04.09.2021 03:52 15,2 C 13,9 C 12,8 C 91 % 1018,1 hPa 0,0 l/m 0 min 0 min 0 W/m 3,2 km/h (1 Bft) 100,00 %
04.09.2021 03:54 15,2 C 13,9 C 12,8 C 91 % 1018,1 hPa 0,0 l/m 0 min 0 min 0 W/m 3,2 km/h (1 Bft) 100,00 %
04.09.2021 03:56 15,1 C 13,9 C 12,8 C 91 % 1018,1 hPa 0,0 l/m 0 min 0 min 0 W/m 3,2 km/h (1 Bft) 100,00 %
04.09.2021 03:58 15,1 C 13,9 C 12,8 C 91 % 1018,0 hPa 0,0 l/m 0 min 0 min 0 W/m 3,2 km/h (1 Bft) 100,00 %
04.09.2021 04:00 15,1 C 13,9 C 12,8 C 91 % 1018,0 hPa 0,0 l/m 0 min 0 min 0 W/m 3,2 km/h (1 Bft) 97,83 %
04.09.2021 04:02 15,1 C 13,9 C 12,8 C 92 % 1018,0 hPa 0,0 l/m 0 min 0 min 0 W/m 3,2 km/h (1 Bft) 100,00 %
04.09.2021 04:04 15,1 C 13,9 C 12,8 C 92 % 1018,0 hPa 0,0 l/m 0 min 0 min 0 W/m 3,2 km/h (1 Bft) 97,83 %
04.09.2021 04:06 15,1 C 13,9 C 12,8 C 92 % 1018,0 hPa 0,0 l/m 0 min 0 min 0 W/m 0,0 km/h (0 Bft) 95,74 %
04.09.2021 04:08 15,1 C 13,9 C 12,8 C 92 % 1018,0 hPa 0,0 l/m 0 min 0 min 0 W/m 0,0 km/h (0 Bft) 100,00 %
04.09.2021 04:10 15,0 C 13,9 C 12,8 C 92 % 1018,0 hPa 0,0 l/m 0 min 0 min 0 W/m 3,2 km/h (1 Bft) 95,74 %
04.09.2021 04:12 15,0 C 13,9 C 12,8 C 92 % 1018,0 hPa 0,0 l/m 0 min 0 min 0 W/m 3,2 km/h (1 Bft) 95,74 %
04.09.2021 04:14 15,0 C 13,9 C 12,8 C 92 % 1018,0 hPa 0,0 l/m 0 min 0 min 0 W/m 3,2 km/h (1 Bft) 97,87 %
04.09.2021 04:16 15,0 C 13,9 C 12,8 C 92 % 1018,0 hPa 0,0 l/m 0 min 0 min 0 W/m 3,2 km/h (1 Bft) 95,65 %
04.09.2021 04:18 15,0 C 13,9 C 12,8 C 92 % 1018,0 hPa 0,0 l/m 0 min 0 min 0 W/m 3,2 km/h (1 Bft) 95,74 %
04.09.2021 04:20 15,0 C 13,9 C 12,8 C 92 % 1018,0 hPa 0,0 l/m 0 min 0 min 0 W/m 3,2 km/h (1 Bft) 95,74 %
04.09.2021 04:22 15,0 C 13,9 C 12,8 C 92 % 1018,0 hPa 0,0 l/m 0 min 0 min 0 W/m 3,2 km/h (1 Bft) 95,74 %
04.09.2021 04:24 14,9 C 13,9 C 12,8 C 92 % 1018,0 hPa 0,0 l/m 0 min 0 min 0 W/m 3,2 km/h (1 Bft) 95,74 %
04.09.2021 04:26 14,9 C 13,9 C 12,8 C 92 % 1017,9 hPa 0,0 l/m 0 min 0 min 0 W/m 6,4 km/h (2 Bft) 95,74 %
04.09.2021 04:28 14,9 C 13,9 C 12,8 C 92 % 1017,9 hPa 0,0 l/m 0 min 0 min 0 W/m 3,2 km/h (1 Bft) 93,48 %
04.09.2021 04:30 14,9 C 13,9 C 12,8 C 92 % 1017,9 hPa 0,0 l/m 0 min 0 min 0 W/m 3,2 km/h (1 Bft) 95,74 %
04.09.2021 04:32 14,9 C 13,9 C 12,8 C 92 % 1017,9 hPa 0,0 l/m 0 min 0 min 0 W/m 6,4 km/h (2 Bft) 93,62 %
04.09.2021 04:34 14,9 C 13,9 C 12,8 C 93 % 1017,8 hPa 0,0 l/m 0 min 0 min 0 W/m 6,4 km/h (2 Bft) 95,74 %
04.09.2021 04:36 14,9 C 13,9 C 12,8 C 93 % 1017,8 hPa 0,0 l/m 0 min 0 min 0 W/m 6,4 km/h (2 Bft) 97,87 %
04.09.2021 04:38 14,8 C 13,9 C 12,8 C 93 % 1017,9 hPa 0,0 l/m 0 min 0 min 0 W/m 3,2 km/h (1 Bft) 93,62 %
04.09.2021 04:40 14,8 C 13,9 C 12,8 C 93 % 1017,9 hPa 0,0 l/m 0 min 0 min 0 W/m 6,4 km/h (2 Bft) 95,65 %
04.09.2021 04:42 14,8 C 13,9 C 12,8 C 93 % 1017,9 hPa 0,0 l/m 0 min 0 min 0 W/m 3,2 km/h (1 Bft) 95,74 %
04.09.2021 04:44 14,8 C 13,9 C 12,8 C 93 % 1017,9 hPa 0,0 l/m 0 min 0 min 0 W/m 3,2 km/h (1 Bft) 95,74 %
04.09.2021 04:46 14,8 C 13,9 C 12,8 C 93 % 1017,9 hPa 0,0 l/m 0 min 0 min 0 W/m 3,2 km/h (1 Bft) 95,74 %
04.09.2021 04:48 14,8 C 13,9 C 12,8 C 93 % 1017,9 hPa 0,0 l/m 0 min 0 min 0 W/m 3,2 km/h (1 Bft) 91,49 %
04.09.2021 04:50 14,8 C 13,9 C 12,8 C 93 % 1017,9 hPa 0,0 l/m 0 min 0 min 0 W/m 6,4 km/h (2 Bft) 93,48 %
04.09.2021 04:52 14,7 C 13,9 C 12,8 C 93 % 1017,8 hPa 0,0 l/m 0 min 0 min 0 W/m 3,2 km/h (1 Bft) 95,74 %
04.09.2021 04:54 14,7 C 13,9 C 12,8 C 93 % 1017,8 hPa 0,0 l/m 0 min 0 min 0 W/m 3,2 km/h (1 Bft) 95,74 %
04.09.2021 04:56 14,7 C 13,9 C 12,8 C 93 % 1017,8 hPa 0,0 l/m 0 min 0 min 0 W/m 3,2 km/h (1 Bft) 95,74 %
04.09.2021 04:58 14,7 C 13,9 C 12,3 C 93 % 1017,8 hPa 0,0 l/m 0 min 0 min 0 W/m 3,2 km/h (1 Bft) 95,74 %
04.09.2021 05:00 14,6 C 13,9 C 12,3 C 93 % 1017,8 hPa 0,0 l/m 0 min 0 min 0 W/m 3,2 km/h (1 Bft) 97,87 %
04.09.2021 05:02 14,6 C 13,9 C 12,3 C 93 % 1017,8 hPa 0,0 l/m 0 min 0 min 0 W/m 6,4 km/h (2 Bft) 94,34 %
04.09.2021 05:04 14,6 C 13,9 C 12,3 C 93 % 1017,8 hPa 0,0 l/m 0 min 0 min 0 W/m 3,2 km/h (1 Bft) 93,48 %
04.09.2021 05:06 14,6 C 13,9 C 12,3 C 93 % 1017,9 hPa 0,0 l/m 0 min 0 min 0 W/m 3,2 km/h (1 Bft) 95,74 %
04.09.2021 05:08 14,6 C 13,9 C 12,3 C 93 % 1017,8 hPa 0,0 l/m 0 min 0 min 0 W/m 3,2 km/h (1 Bft) 95,74 %
04.09.2021 05:10 14,5 C 13,9 C 12,3 C 93 % 1017,9 hPa 0,0 l/m 0 min 0 min 0 W/m 3,2 km/h (1 Bft) 95,74 %
04.09.2021 05:12 14,5 C 13,9 C 12,3 C 93 % 1017,9 hPa 0,0 l/m 0 min 0 min 0 W/m 6,4 km/h (2 Bft) 95,74 %
04.09.2021 05:14 14,5 C 13,9 C 12,3 C 94 % 1017,8 hPa 0,0 l/m 0 min 0 min 0 W/m 6,4 km/h (2 Bft) 97,83 %
04.09.2021 05:16 14,5 C 13,9 C 12,3 C 94 % 1017,8 hPa 0,0 l/m 0 min 0 min 0 W/m 9,7 km/h (2 Bft) 95,74 %
04.09.2021 05:18 14,5 C 13,9 C 12,3 C 94 % 1017,8 hPa 0,0 l/m 0 min 0 min 0 W/m 6,4 km/h (2 Bft) 100,00 %
04.09.2021 05:20 14,5 C 13,9 C 12,3 C 94 % 1017,9 hPa 0,0 l/m 0 min 0 min 0 W/m 6,4 km/h (2 Bft) 100,00 %
04.09.2021 05:22 14,5 C 13,3 C 12,3 C 94 % 1017,9 hPa 0,0 l/m 0 min 0 min 0 W/m 6,4 km/h (2 Bft) 100,00 %
04.09.2021 05:24 14,4 C 13,3 C 12,3 C 94 % 1017,9 hPa 0,0 l/m 0 min 0 min 0 W/m 6,4 km/h (2 Bft) 100,00 %
04.09.2021 05:26 14,4 C 13,3 C 12,3 C 94 % 1017,9 hPa 0,0 l/m 0 min 0 min 0 W/m 6,4 km/h (2 Bft) 100,00 %
04.09.2021 05:28 14,4 C 13,3 C 12,3 C 94 % 1017,9 hPa 0,0 l/m 0 min 0 min 0 W/m 6,4 km/h (2 Bft) 100,00 %
04.09.2021 05:30 14,4 C 13,3 C 12,3 C 94 % 1017,8 hPa 0,0 l/m 0 min 0 min 0 W/m 6,4 km/h (2 Bft) 100,00 %
04.09.2021 05:32 14,4 C 13,3 C 12,3 C 94 % 1017,8 hPa 0,0 l/m 0 min 0 min 0 W/m 9,7 km/h (2 Bft) 100,00 %
04.09.2021 05:34 14,3 C 13,3 C 12,3 C 94 % 1017,8 hPa 0,0 l/m 0 min 0 min 0 W/m 6,4 km/h (2 Bft) 100,00 %
04.09.2021 05:36 14,3 C 13,3 C 12,3 C 94 % 1017,8 hPa 0,0 l/m 0 min 0 min 0 W/m 6,4 km/h (2 Bft) 100,00 %
04.09.2021 05:38 14,3 C 13,3 C 12,3 C 94 % 1017,8 hPa 0,0 l/m 0 min 0 min 0 W/m 3,2 km/h (1 Bft) 100,00 %
04.09.2021 05:40 14,3 C 13,3 C 12,3 C 94 % 1017,8 hPa 0,0 l/m 0 min 0 min 0 W/m 6,4 km/h (2 Bft) 100,00 %
04.09.2021 05:42 14,2 C 13,3 C 12,3 C 94 % 1017,8 hPa 0,0 l/m 0 min 0 min 0 W/m 6,4 km/h (2 Bft) 97,87 %
04.09.2021 05:44 14,2 C 13,3 C 12,3 C 94 % 1017,9 hPa 0,0 l/m 0 min 0 min 0 W/m 3,2 km/h (1 Bft) 100,00 %
04.09.2021 05:46 14,2 C 13,3 C 12,3 C 94 % 1017,9 hPa 0,0 l/m 0 min 0 min 0 W/m 0,0 km/h (0 Bft) 100,00 %
04.09.2021 05:48 14,2 C 13,3 C 12,3 C 94 % 1017,9 hPa 0,0 l/m 0 min 0 min 0 W/m 3,2 km/h (1 Bft) 100,00 %
04.09.2021 05:50 14,2 C 13,3 C 12,3 C 94 % 1017,9 hPa 0,0 l/m 0 min 0 min 0 W/m 0,0 km/h (0 Bft) 97,83 %
04.09.2021 05:52 14,2 C 13,3 C 12,3 C 94 % 1017,9 hPa 0,0 l/m 0 min 0 min 0 W/m 3,2 km/h (1 Bft) 97,87 %
04.09.2021 05:54 14,2 C 13,3 C 12,3 C 94 % 1017,9 hPa 0,0 l/m 0 min 0 min 0 W/m 3,2 km/h (1 Bft) 100,00 %
04.09.2021 05:56 14,2 C 13,3 C 12,3 C 94 % 1017,9 hPa 0,0 l/m 0 min 0 min 0 W/m 6,4 km/h (2 Bft) 100,00 %
04.09.2021 05:58 14,2 C 13,3 C 12,3 C 94 % 1017,9 hPa 0,0 l/m 0 min 0 min 0 W/m 3,2 km/h (1 Bft) 100,00 %
04.09.2021 06:00 14,2 C 13,3 C 12,3 C 94 % 1017,9 hPa 0,0 l/m 0 min 0 min 0 W/m 6,4 km/h (2 Bft) 100,00 %
04.09.2021 06:02 14,2 C 13,3 C 12,3 C 94 % 1018,0 hPa 0,0 l/m 0 min 0 min 0 W/m 3,2 km/h (1 Bft) 97,87 %
04.09.2021 06:04 14,2 C 13,3 C 12,3 C 94 % 1018,0 hPa 0,0 l/m 0 min 0 min 0 W/m 3,2 km/h (1 Bft) 100,00 %
04.09.2021 06:08 14,1 C 13,3 C 12,3 C 94 % 1018,0 hPa 0,0 l/m 0 min 0 min 0 W/m 6,4 km/h (2 Bft) 100,00 %
04.09.2021 06:10 14,1 C 13,3 C 12,3 C 94 % 1018,0 hPa 0,0 l/m 0 min 0 min 0 W/m 3,2 km/h (1 Bft) 100,00 %
04.09.2021 06:12 14,1 C 13,3 C 12,3 C 94 % 1018,0 hPa 0,0 l/m 0 min 0 min 0 W/m 6,4 km/h (2 Bft) 100,00 %
04.09.2021 06:14 14,0 C 13,3 C 12,3 C 94 % 1018,0 hPa 0,0 l/m 0 min 0 min 0 W/m 6,4 km/h (2 Bft) 100,00 %
04.09.2021 06:16 14,0 C 13,3 C 12,3 C 94 % 1018,0 hPa 0,0 l/m 0 min 0 min 0 W/m 6,4 km/h (2 Bft) 100,00 %
04.09.2021 06:18 14,0 C 13,3 C 12,3 C 94 % 1018,0 hPa 0,0 l/m 0 min 0 min 0 W/m 6,4 km/h (2 Bft) 97,87 %
04.09.2021 06:20 14,0 C 12,8 C 12,3 C 95 % 1018,0 hPa 0,0 l/m 0 min 0 min 0 W/m 6,4 km/h (2 Bft) 97,87 %
04.09.2021 06:22 14,0 C 12,8 C 12,3 C 95 % 1017,9 hPa 0,0 l/m 0 min 0 min 0 W/m 6,4 km/h (2 Bft) 100,00 %
04.09.2021 06:24 14,0 C 12,8 C 12,3 C 95 % 1018,0 hPa 0,0 l/m 0 min 0 min 0 W/m 6,4 km/h (2 Bft) 100,00 %
04.09.2021 06:26 13,9 C 12,8 C 12,3 C 95 % 1018,0 hPa 0,0 l/m 0 min 0 min 0 W/m 6,4 km/h (2 Bft) 97,87 %
04.09.2021 06:28 13,9 C 12,8 C 12,3 C 95 % 1017,9 hPa 0,0 l/m 0 min 0 min 0 W/m 6,4 km/h (2 Bft) 97,87 %
04.09.2021 06:30 13,9 C 12,8 C 12,3 C 95 % 1018,0 hPa 0,0 l/m 0 min 0 min 0 W/m 3,2 km/h (1 Bft) 100,00 %
04.09.2021 06:32 13,9 C 12,8 C 12,3 C 95 % 1018,0 hPa 0,0 l/m 0 min 0 min 0 W/m 6,4 km/h (2 Bft) 97,87 %
04.09.2021 06:34 13,9 C 12,8 C 12,3 C 95 % 1018,0 hPa 0,0 l/m 0 min 0 min 0 W/m 6,4 km/h (2 Bft) 100,00 %
04.09.2021 06:36 13,9 C 12,8 C 12,3 C 95 % 1018,0 hPa 0,0 l/m 0 min 0 min 0 W/m 3,2 km/h (1 Bft) 95,65 %
04.09.2021 06:38 13,9 C 12,8 C 12,3 C 95 % 1018,0 hPa 0,0 l/m 0 min 0 min 0 W/m 9,7 km/h (2 Bft) 97,87 %
04.09.2021 06:40 13,9 C 12,8 C 12,3 C 95 % 1018,1 hPa 0,0 l/m 0 min 0 min 0 W/m 6,4 km/h (2 Bft) 95,74 %
04.09.2021 06:42 13,9 C 13,3 C 12,3 C 95 % 1018,0 hPa 0,0 l/m 0 min 0 min 0 W/m 6,4 km/h (2 Bft) 91,49 %
04.09.2021 06:44 13,9 C 13,3 C 12,3 C 95 % 1018,1 hPa 0,0 l/m 0 min 0 min 0 W/m 6,4 km/h (2 Bft) 95,74 %
04.09.2021 06:46 13,9 C 13,3 C 12,3 C 95 % 1018,1 hPa 0,0 l/m 0 min 0 min 0 W/m 3,2 km/h (1 Bft) 95,74 %
04.09.2021 06:48 13,9 C 13,3 C 12,3 C 95 % 1018,1 hPa 0,0 l/m 0 min 0 min 0 W/m 12,9 km/h (3 Bft) 95,65 %
04.09.2021 06:50 13,9 C 13,3 C 12,3 C 95 % 1018,1 hPa 0,0 l/m 0 min 0 min 0 W/m 3,2 km/h (1 Bft) 95,74 %
04.09.2021 06:52 13,9 C 13,3 C 12,3 C 95 % 1018,1 hPa 0,0 l/m 0 min 0 min 0 W/m 3,2 km/h (1 Bft) 95,74 %
04.09.2021 06:54 13,9 C 13,3 C 12,3 C 95 % 1018,1 hPa 0,0 l/m 0 min 0 min 0 W/m 3,2 km/h (1 Bft) 95,74 %
04.09.2021 06:56 13,9 C 13,3 C 12,3 C 95 % 1018,1 hPa 0,0 l/m 0 min 0 min 0 W/m 3,2 km/h (1 Bft) 95,74 %
04.09.2021 06:58 13,9 C 13,3 C 12,3 C 95 % 1018,1 hPa 0,0 l/m 0 min 0 min 0 W/m 6,4 km/h (2 Bft) 95,74 %
04.09.2021 07:00 14,0 C 13,3 C 12,3 C 96 % 1018,1 hPa 0,0 l/m 0 min 0 min 4 W/m 3,2 km/h (1 Bft) 97,83 %
04.09.2021 07:02 14,0 C 13,3 C 12,3 C 96 % 1018,2 hPa 0,0 l/m 0 min 0 min 5 W/m 3,2 km/h (1 Bft) 95,83 %
04.09.2021 07:04 14,0 C 13,3 C 12,3 C 96 % 1018,2 hPa 0,0 l/m 0 min 0 min 5 W/m 9,7 km/h (2 Bft) 93,62 %
04.09.2021 07:06 14,0 C 13,3 C 12,3 C 96 % 1018,2 hPa 0,0 l/m 0 min 0 min 5 W/m 6,4 km/h (2 Bft) 95,65 %
04.09.2021 07:08 14,0 C 13,3 C 12,3 C 96 % 1018,3 hPa 0,0 l/m 0 min 0 min 5 W/m 12,9 km/h (3 Bft) 97,87 %
04.09.2021 07:10 14,0 C 13,3 C 12,3 C 96 % 1018,2 hPa 0,0 l/m 0 min 0 min 7 W/m 6,4 km/h (2 Bft) 97,87 %
04.09.2021 07:12 14,0 C 13,3 C 12,3 C 96 % 1018,3 hPa 0,0 l/m 0 min 0 min 7 W/m 6,4 km/h (2 Bft) 95,74 %
04.09.2021 07:14 14,0 C 13,3 C 12,3 C 96 % 1018,2 hPa 0,0 l/m 0 min 0 min 7 W/m 12,9 km/h (3 Bft) 97,87 %
04.09.2021 07:16 14,0 C 13,3 C 12,3 C 96 % 1018,2 hPa 0,0 l/m 0 min 0 min 9 W/m 9,7 km/h (2 Bft) 97,87 %
04.09.2021 07:18 14,0 C 13,3 C 12,3 C 96 % 1018,2 hPa 0,0 l/m 0 min 0 min 9 W/m 12,9 km/h (3 Bft) 100,00 %
04.09.2021 07:20 14,0 C 13,3 C 12,3 C 96 % 1018,3 hPa 0,0 l/m 0 min 0 min 10 W/m 12,9 km/h (3 Bft) 100,00 %
04.09.2021 07:22 14,0 C 13,3 C 12,3 C 96 % 1018,3 hPa 0,0 l/m 0 min 0 min 11 W/m 16,1 km/h (3 Bft) 97,87 %
04.09.2021 07:24 14,0 C 13,3 C 12,3 C 96 % 1018,4 hPa 0,0 l/m 0 min 0 min 11 W/m 12,9 km/h (3 Bft) 97,87 %
04.09.2021 07:26 13,9 C 13,3 C 12,3 C 96 % 1018,4 hPa 0,0 l/m 0 min 0 min 12 W/m 12,9 km/h (3 Bft) 95,74 %
04.09.2021 07:28 13,9 C 13,3 C 12,3 C 96 % 1018,4 hPa 0,0 l/m 0 min 0 min 13 W/m 9,7 km/h (2 Bft) 97,87 %
04.09.2021 07:30 13,9 C 13,3 C 12,3 C 96 % 1018,4 hPa 0,0 l/m 0 min 0 min 15 W/m 9,7 km/h (2 Bft) 97,83 %
04.09.2021 07:32 13,9 C 13,3 C 12,3 C 96 % 1018,4 hPa 0,0 l/m 0 min 0 min 15 W/m 16,1 km/h (3 Bft) 97,87 %
04.09.2021 07:34 13,9 C 13,3 C 12,3 C 96 % 1018,5 hPa 0,0 l/m 0 min 0 min 17 W/m 12,9 km/h (3 Bft) 97,14 %
04.09.2021 07:36 13,9 C 13,3 C 12,3 C 96 % 1018,4 hPa 0,0 l/m 0 min 0 min 18 W/m 9,7 km/h (2 Bft) 98,31 %
04.09.2021 07:38 13,9 C 13,3 C 12,3 C 96 % 1018,5 hPa 0,0 l/m 0 min 0 min 19 W/m 16,1 km/h (3 Bft) 97,87 %
04.09.2021 07:40 13,9 C 13,3 C 12,3 C 96 % 1018,4 hPa 0,0 l/m 0 min 0 min 20 W/m 12,9 km/h (3 Bft) 97,87 %
04.09.2021 07:42 13,9 C 13,3 C 12,3 C 96 % 1018,4 hPa 0,0 l/m 0 min 0 min 21 W/m 12,9 km/h (3 Bft) 97,83 %
04.09.2021 07:44 13,9 C 13,3 C 12,3 C 96 % 1018,5 hPa 0,0 l/m 0 min 0 min 23 W/m 6,4 km/h (2 Bft) 97,87 %
04.09.2021 07:46 13,9 C 13,3 C 12,8 C 96 % 1018,5 hPa 0,0 l/m 0 min 0 min 23 W/m 9,7 km/h (2 Bft) 97,14 %
04.09.2021 07:48 13,9 C 13,3 C 12,8 C 96 % 1018,5 hPa 0,0 l/m 0 min 0 min 23 W/m 6,4 km/h (2 Bft) 97,87 %
04.09.2021 07:50 13,9 C 13,3 C 12,8 C 96 % 1018,5 hPa 0,0 l/m 0 min 0 min 23 W/m 9,7 km/h (2 Bft) 97,87 %
04.09.2021 07:52 13,9 C 13,3 C 12,8 C 96 % 1018,5 hPa 0,0 l/m 0 min 0 min 25 W/m 6,4 km/h (2 Bft) 97,87 %
04.09.2021 07:54 13,9 C 13,3 C 12,8 C 96 % 1018,5 hPa 0,0 l/m 0 min 0 min 26 W/m 9,7 km/h (2 Bft) 97,87 %
04.09.2021 07:56 13,9 C 13,3 C 12,8 C 96 % 1018,6 hPa 0,0 l/m 0 min 0 min 27 W/m 6,4 km/h (2 Bft) 96,55 %
04.09.2021 07:58 13,9 C 13,9 C 12,8 C 96 % 1018,7 hPa 0,0 l/m 0 min 0 min 27 W/m 6,4 km/h (2 Bft) 100,00 %
04.09.2021 08:00 13,9 C 13,9 C 12,8 C 96 % 1018,6 hPa 0,0 l/m 0 min 0 min 29 W/m 12,9 km/h (3 Bft) 94,92 %
04.09.2021 08:02 13,9 C 13,9 C 12,8 C 96 % 1018,6 hPa 0,0 l/m 0 min 0 min 29 W/m 3,2 km/h (1 Bft) 97,14 %
04.09.2021 08:04 13,9 C 13,9 C 12,8 C 96 % 1018,6 hPa 0,0 l/m 0 min 0 min 30 W/m 16,1 km/h (3 Bft) 97,87 %
04.09.2021 08:06 13,9 C 13,9 C 12,8 C 96 % 1018,6 hPa 0,0 l/m 0 min 0 min 31 W/m 9,7 km/h (2 Bft) 97,87 %
04.09.2021 08:08 13,9 C 13,3 C 12,8 C 96 % 1018,6 hPa 0,0 l/m 0 min 0 min 33 W/m 12,9 km/h (3 Bft) 97,83 %
04.09.2021 08:10 13,9 C 13,3 C 12,8 C 96 % 1018,6 hPa 0,0 l/m 0 min 0 min 35 W/m 6,4 km/h (2 Bft) 97,87 %
04.09.2021 08:12 13,9 C 13,3 C 12,8 C 96 % 1018,6 hPa 0,0 l/m 0 min 0 min 39 W/m 6,4 km/h (2 Bft) 97,87 %
04.09.2021 08:14 13,9 C 13,3 C 12,8 C 96 % 1018,6 hPa 0,0 l/m 0 min 0 min 38 W/m 16,1 km/h (3 Bft) 97,87 %
04.09.2021 08:16 13,8 C 13,3 C 12,8 C 96 % 1018,6 hPa 0,0 l/m 0 min 0 min 37 W/m 6,4 km/h (2 Bft) 97,87 %
04.09.2021 08:18 13,8 C 13,3 C 12,8 C 96 % 1018,6 hPa 0,0 l/m 0 min 0 min 38 W/m 16,1 km/h (3 Bft) 97,87 %
04.09.2021 08:20 13,8 C 13,3 C 12,8 C 96 % 1018,6 hPa 0,0 l/m 0 min 0 min 39 W/m 12,9 km/h (3 Bft) 100,00 %
04.09.2021 08:22 13,8 C 13,3 C 12,8 C 96 % 1018,6 hPa 0,0 l/m 0 min 0 min 42 W/m 9,7 km/h (2 Bft) 100,00 %
04.09.2021 08:24 13,8 C 13,3 C 12,8 C 96 % 1018,6 hPa 0,0 l/m 0 min 0 min 41 W/m 19,3 km/h (3 Bft) 95,74 %
04.09.2021 08:26 13,8 C 13,3 C 12,8 C 96 % 1018,6 hPa 0,0 l/m 0 min 0 min 44 W/m 16,1 km/h (3 Bft) 100,00 %
04.09.2021 08:28 13,8 C 13,3 C 12,8 C 96 % 1018,6 hPa 0,0 l/m 0 min 0 min 45 W/m 6,4 km/h (2 Bft) 97,87 %
04.09.2021 08:30 13,8 C 13,3 C 12,8 C 96 % 1018,6 hPa 0,0 l/m 0 min 0 min 47 W/m 12,9 km/h (3 Bft) 97,83 %
04.09.2021 08:32 13,8 C 13,3 C 12,8 C 96 % 1018,7 hPa 0,0 l/m 0 min 0 min 46 W/m 12,9 km/h (3 Bft) 97,87 %
04.09.2021 08:34 13,8 C 13,3 C 12,8 C 96 % 1018,7 hPa 0,0 l/m 0 min 0 min 44 W/m 12,9 km/h (3 Bft) 93,62 %
04.09.2021 08:36 13,8 C 13,3 C 12,8 C 96 % 1018,7 hPa 0,0 l/m 0 min 0 min 46 W/m 12,9 km/h (3 Bft) 97,87 %
04.09.2021 08:38 13,8 C 13,3 C 12,8 C 96 % 1018,7 hPa 0,0 l/m 0 min 0 min 46 W/m 6,4 km/h (2 Bft) 97,87 %
04.09.2021 08:40 13,8 C 13,9 C 12,8 C 96 % 1018,7 hPa 0,0 l/m 0 min 0 min 48 W/m 6,4 km/h (2 Bft) 97,87 %
04.09.2021 08:42 13,8 C 13,9 C 12,8 C 96 % 1018,7 hPa 0,0 l/m 0 min 0 min 49 W/m 12,9 km/h (3 Bft) 97,83 %
04.09.2021 08:44 13,8 C 13,9 C 12,8 C 96 % 1018,8 hPa 0,0 l/m 0 min 0 min 53 W/m 12,9 km/h (3 Bft) 97,87 %
04.09.2021 08:45 13,8 C 13,9 C 12,8 C 96 % 1018,8 hPa 0,0 l/m 0 min 0 min 54 W/m 3,2 km/h (1 Bft) 97,87 %
04.09.2021 08:48 13,8 C 13,9 C 12,8 C 96 % 1018,8 hPa 0,0 l/m 0 min 0 min 54 W/m 12,9 km/h (3 Bft) 97,87 %
04.09.2021 08:50 13,8 C 13,9 C 12,8 C 96 % 1018,8 hPa 0,0 l/m 0 min 0 min 54 W/m 9,7 km/h (2 Bft) 97,87 %
04.09.2021 08:52 13,8 C 13,9 C 12,8 C 96 % 1018,8 hPa 0,0 l/m 0 min 0 min 56 W/m 12,9 km/h (3 Bft) 96,36 %
04.09.2021 08:54 13,8 C 13,9 C 12,8 C 96 % 1018,8 hPa 0,0 l/m 0 min 0 min 57 W/m 6,4 km/h (2 Bft) 96,00 %
04.09.2021 08:56 13,8 C 13,9 C 12,8 C 96 % 1018,8 hPa 0,0 l/m 0 min 0 min 58 W/m 12,9 km/h (3 Bft) 97,87 %
04.09.2021 08:58 13,8 C 13,9 C 12,8 C 96 % 1018,7 hPa 0,0 l/m 0 min 0 min 59 W/m 12,9 km/h (3 Bft) 97,14 %
04.09.2021 09:00 13,8 C 13,9 C 12,8 C 96 % 1018,7 hPa 0,0 l/m 0 min 0 min 62 W/m 12,9 km/h (3 Bft) 96,36 %
04.09.2021 09:02 13,8 C 13,9 C 12,8 C 96 % 1018,8 hPa 0,0 l/m 0 min 0 min 65 W/m 6,4 km/h (2 Bft) 96,00 %
04.09.2021 09:04 13,8 C 13,9 C 12,8 C 96 % 1018,8 hPa 0,0 l/m 0 min 0 min 69 W/m 6,4 km/h (2 Bft) 95,74 %
04.09.2021 09:06 13,8 C 13,9 C 12,8 C 96 % 1018,8 hPa 0,0 l/m 0 min 0 min 75 W/m 12,9 km/h (3 Bft) 97,87 %
04.09.2021 09:08 13,8 C 13,3 C 12,8 C 96 % 1018,8 hPa 0,0 l/m 0 min 0 min 72 W/m 12,9 km/h (3 Bft) 95,74 %
04.09.2021 09:10 13,8 C 13,9 C 12,8 C 96 % 1018,8 hPa 0,0 l/m 0 min 0 min 73 W/m 6,4 km/h (2 Bft) 91,49 %
04.09.2021 09:12 13,9 C 13,9 C 12,8 C 96 % 1018,8 hPa 0,0 l/m 0 min 0 min 71 W/m 9,7 km/h (2 Bft) 97,14 %
04.09.2021 09:14 13,9 C 13,9 C 12,8 C 96 % 1018,8 hPa 0,0 l/m 0 min 0 min 74 W/m 9,7 km/h (2 Bft) 98,18 %
04.09.2021 09:16 13,9 C 13,9 C 12,8 C 96 % 1018,8 hPa 0,0 l/m 0 min 0 min 76 W/m 16,1 km/h (3 Bft) 93,62 %
04.09.2021 09:18 13,9 C 13,9 C 12,8 C 96 % 1018,8 hPa 0,0 l/m 0 min 0 min 77 W/m 12,9 km/h (3 Bft) 93,62 %
04.09.2021 09:20 13,9 C 13,9 C 12,8 C 96 % 1018,8 hPa 0,0 l/m 0 min 0 min 78 W/m 6,4 km/h (2 Bft) 85,71 %
04.09.2021 09:22 13,9 C 13,9 C 12,8 C 96 % 1018,8 hPa 0,0 l/m 0 min 0 min 78 W/m 3,2 km/h (1 Bft) 80,85 %
04.09.2021 09:24 13,9 C 13,9 C 13,4 C 96 % 1018,8 hPa 0,0 l/m 0 min 0 min 81 W/m 12,9 km/h (3 Bft) 85,42 %
04.09.2021 09:26 13,9 C 13,9 C 13,4 C 96 % 1018,8 hPa 0,0 l/m 0 min 0 min 88 W/m 9,7 km/h (2 Bft) 94,29 %
04.09.2021 09:28 13,9 C 13,9 C 13,4 C 96 % 1018,8 hPa 0,0 l/m 0 min 0 min 86 W/m 9,7 km/h (2 Bft) 87,23 %
04.09.2021 09:30 13,9 C 13,9 C 12,8 C 96 % 1018,9 hPa 0,0 l/m 0 min 0 min 85 W/m 12,9 km/h (3 Bft) 91,30 %
04.09.2021 09:32 13,9 C 13,9 C 12,8 C 96 % 1018,9 hPa 0,0 l/m 0 min 0 min 84 W/m 12,9 km/h (3 Bft) 93,62 %
04.09.2021 09:34 13,9 C 13,9 C 12,8 C 96 % 1018,9 hPa 0,0 l/m 0 min 0 min 87 W/m 6,4 km/h (2 Bft) 82,98 %
04.09.2021 09:36 13,9 C 13,9 C 12,8 C 96 % 1018,9 hPa 0,0 l/m 0 min 0 min 82 W/m 9,7 km/h (2 Bft) 91,49 %
04.09.2021 09:38 13,9 C 13,9 C 12,8 C 96 % 1019,0 hPa 0,0 l/m 0 min 0 min 90 W/m 12,9 km/h (3 Bft) 98,18 %
04.09.2021 09:40 13,9 C 13,9 C 12,8 C 95 % 1019,0 hPa 0,0 l/m 0 min 0 min 94 W/m 6,4 km/h (2 Bft) 96,00 %
04.09.2021 09:42 13,9 C 13,9 C 12,8 C 95 % 1019,0 hPa 0,0 l/m 0 min 0 min 92 W/m 9,7 km/h (2 Bft) 97,87 %
04.09.2021 09:44 13,9 C 13,9 C 13,4 C 95 % 1019,1 hPa 0,0 l/m 0 min 0 min 95 W/m 6,4 km/h (2 Bft) 97,14 %
04.09.2021 09:46 13,9 C 13,9 C 13,4 C 95 % 1019,0 hPa 0,0 l/m 0 min 0 min 97 W/m 6,4 km/h (2 Bft) 97,87 %
04.09.2021 09:48 14,0 C 13,9 C 13,4 C 96 % 1019,0 hPa 0,0 l/m 0 min 0 min 107 W/m 12,9 km/h (3 Bft) 97,87 %
04.09.2021 09:50 14,0 C 13,9 C 13,4 C 95 % 1018,9 hPa 0,0 l/m 0 min 0 min 108 W/m 9,7 km/h (2 Bft) 97,87 %
04.09.2021 09:52 14,0 C 14,4 C 13,4 C 96 % 1019,0 hPa 0,0 l/m 0 min 0 min 104 W/m 6,4 km/h (2 Bft) 98,18 %
04.09.2021 09:54 14,0 C 14,4 C 13,4 C 96 % 1019,0 hPa 0,0 l/m 0 min 0 min 109 W/m 12,9 km/h (3 Bft) 100,00 %
04.09.2021 09:56 14,0 C 14,4 C 13,4 C 96 % 1019,0 hPa 0,0 l/m 0 min 0 min 106 W/m 9,7 km/h (2 Bft) 100,00 %
04.09.2021 09:58 14,0 C 14,4 C 13,4 C 96 % 1019,0 hPa 0,0 l/m 0 min 0 min 115 W/m 12,9 km/h (3 Bft) 100,00 %
04.09.2021 10:00 14,1 C 14,4 C 13,4 C 96 % 1019,0 hPa 0,0 l/m 0 min 0 min 119 W/m 9,7 km/h (2 Bft) 100,00 %
04.09.2021 10:02 14,1 C 14,4 C 13,4 C 96 % 1019,1 hPa 0,0 l/m 0 min 0 min 117 W/m 9,7 km/h (2 Bft) 97,87 %
04.09.2021 10:04 14,1 C 14,4 C 13,4 C 96 % 1019,1 hPa 0,0 l/m 0 min 0 min 118 W/m 12,9 km/h (3 Bft) 100,00 %
04.09.2021 10:06 14,1 C 14,4 C 13,4 C 95 % 1019,1 hPa 0,0 l/m 0 min 0 min 117 W/m 9,7 km/h (2 Bft) 95,74 %
04.09.2021 10:08 14,1 C 14,4 C 13,4 C 95 % 1019,0 hPa 0,0 l/m 0 min 0 min 116 W/m 6,4 km/h (2 Bft) 95,74 %
04.09.2021 10:10 14,1 C 14,4 C 13,4 C 95 % 1019,1 hPa 0,0 l/m 0 min 0 min 125 W/m 9,7 km/h (2 Bft) 100,00 %
04.09.2021 10:12 14,2 C 14,4 C 13,4 C 95 % 1019,1 hPa 0,0 l/m 0 min 0 min 132 W/m 6,4 km/h (2 Bft) 100,00 %
04.09.2021 10:14 14,2 C 14,4 C 13,4 C 95 % 1019,1 hPa 0,0 l/m 0 min 0 min 143 W/m 9,7 km/h (2 Bft) 100,00 %
04.09.2021 10:16 14,2 C 14,4 C 13,4 C 95 % 1019,1 hPa 0,0 l/m 0 min 0 min 145 W/m 16,1 km/h (3 Bft) 95,92 %
04.09.2021 10:18 14,2 C 14,4 C 13,4 C 95 % 1019,1 hPa 0,0 l/m 0 min 0 min 149 W/m 6,4 km/h (2 Bft) 95,74 %
04.09.2021 10:20 14,2 C 14,4 C 13,4 C 95 % 1019,2 hPa 0,0 l/m 0 min 0 min 147 W/m 9,7 km/h (2 Bft) 97,87 %
04.09.2021 10:22 14,2 C 14,4 C 13,4 C 95 % 1019,1 hPa 0,0 l/m 0 min 0 min 142 W/m 9,7 km/h (2 Bft) 94,44 %
04.09.2021 10:24 14,2 C 15,0 C 13,4 C 95 % 1019,1 hPa 0,0 l/m 0 min 0 min 146 W/m 12,9 km/h (3 Bft) 97,87 %
04.09.2021 10:26 14,2 C 15,0 C 13,4 C 95 % 1019,1 hPa 0,0 l/m 0 min 0 min 149 W/m 9,7 km/h (2 Bft) 96,36 %
04.09.2021 10:28 14,2 C 15,0 C 13,4 C 95 % 1019,2 hPa 0,0 l/m 0 min 0 min 161 W/m 9,7 km/h (2 Bft) 95,65 %
04.09.2021 10:30 14,2 C 14,4 C 13,4 C 95 % 1019,1 hPa 0,0 l/m 0 min 0 min 163 W/m 12,9 km/h (3 Bft) 94,00 %
04.09.2021 10:32 14,2 C 15,0 C 13,4 C 95 % 1019,2 hPa 0,0 l/m 0 min 0 min 165 W/m 9,7 km/h (2 Bft) 97,22 %
04.09.2021 10:34 14,2 C 14,4 C 13,4 C 95 % 1019,2 hPa 0,0 l/m 0 min 0 min 165 W/m 9,7 km/h (2 Bft) 95,74 %
04.09.2021 10:36 14,2 C 15,0 C 13,4 C 95 % 1019,2 hPa 0,0 l/m 0 min 0 min 160 W/m 6,4 km/h (2 Bft) 95,74 %
04.09.2021 10:38 14,2 C 15,0 C 13,4 C 95 % 1019,2 hPa 0,0 l/m 0 min 0 min 165 W/m 16,1 km/h (3 Bft) 95,65 %
04.09.2021 10:40 14,2 C 15,0 C 13,9 C 95 % 1019,3 hPa 0,0 l/m 0 min 0 min 170 W/m 9,7 km/h (2 Bft) 94,55 %
04.09.2021 10:42 14,3 C 15,0 C 13,9 C 95 % 1019,2 hPa 0,0 l/m 0 min 0 min 175 W/m 9,7 km/h (2 Bft) 95,74 %
04.09.2021 10:44 14,3 C 15,0 C 13,9 C 95 % 1019,2 hPa 0,0 l/m 0 min 0 min 179 W/m 16,1 km/h (3 Bft) 96,00 %
04.09.2021 10:46 14,3 C 15,0 C 13,9 C 95 % 1019,2 hPa 0,0 l/m 0 min 0 min 184 W/m 9,7 km/h (2 Bft) 95,74 %
04.09.2021 10:48 14,4 C 15,0 C 13,9 C 95 % 1019,2 hPa 0,0 l/m 0 min 0 min 176 W/m 9,7 km/h (2 Bft) 94,44 %
04.09.2021 10:50 14,4 C 15,0 C 13,9 C 94 % 1019,2 hPa 0,0 l/m 0 min 0 min 163 W/m 9,7 km/h (2 Bft) 95,65 %
04.09.2021 10:52 14,5 C 15,0 C 13,9 C 94 % 1019,2 hPa 0,0 l/m 0 min 0 min 165 W/m 12,9 km/h (3 Bft) 93,62 %
04.09.2021 10:54 14,5 C 15,0 C 13,9 C 94 % 1019,2 hPa 0,0 l/m 0 min 0 min 171 W/m 9,7 km/h (2 Bft) 95,74 %
04.09.2021 10:56 14,5 C 15,0 C 13,9 C 94 % 1019,2 hPa 0,0 l/m 0 min 0 min 178 W/m 9,7 km/h (2 Bft) 95,74 %
04.09.2021 10:58 14,5 C 15,0 C 13,9 C 94 % 1019,2 hPa 0,0 l/m 0 min 0 min 181 W/m 6,4 km/h (2 Bft) 96,36 %
04.09.2021 11:00 14,5 C 15,0 C 13,9 C 94 % 1019,2 hPa 0,0 l/m 0 min 0 min 185 W/m 12,9 km/h (3 Bft) 93,62 %
04.09.2021 11:02 14,5 C 15,0 C 13,9 C 94 % 1019,3 hPa 0,0 l/m 0 min 0 min 189 W/m 16,1 km/h (3 Bft) 97,87 %
04.09.2021 11:04 14,5 C 15,0 C 13,9 C 94 % 1019,3 hPa 0,0 l/m 0 min 0 min 185 W/m 9,7 km/h (2 Bft) 97,83 %
04.09.2021 11:06 14,6 C 15,6 C 13,9 C 94 % 1019,3 hPa 0,0 l/m 0 min 0 min 186 W/m 6,4 km/h (2 Bft) 95,74 %
04.09.2021 11:08 14,6 C 15,0 C 13,9 C 94 % 1019,3 hPa 0,0 l/m 0 min 0 min 189 W/m 12,9 km/h (3 Bft) 100,00 %
04.09.2021 11:10 14,6 C 15,6 C 13,9 C 93 % 1019,3 hPa 0,0 l/m 0 min 0 min 195 W/m 6,4 km/h (2 Bft) 100,00 %
04.09.2021 11:12 14,6 C 15,6 C 13,9 C 93 % 1019,3 hPa 0,0 l/m 0 min 0 min 209 W/m 9,7 km/h (2 Bft) 100,00 %
04.09.2021 11:14 14,7 C 15,6 C 13,9 C 93 % 1019,3 hPa 0,0 l/m 0 min 0 min 248 W/m 9,7 km/h (2 Bft) 98,00 %
04.09.2021 11:16 14,8 C 15,6 C 14,5 C 93 % 1019,4 hPa 0,0 l/m 0 min 0 min 211 W/m 12,9 km/h (3 Bft) 100,00 %
04.09.2021 11:18 14,8 C 15,6 C 14,5 C 93 % 1019,3 hPa 0,0 l/m 0 min 0 min 215 W/m 6,4 km/h (2 Bft) 100,00 %
04.09.2021 11:20 14,9 C 16,1 C 14,5 C 93 % 1019,3 hPa 0,0 l/m 0 min 0 min 225 W/m 6,4 km/h (2 Bft) 100,00 %
04.09.2021 11:22 14,9 C 16,1 C 14,5 C 93 % 1019,4 hPa 0,0 l/m 0 min 0 min 233 W/m 6,4 km/h (2 Bft) 100,00 %
04.09.2021 11:24 15,0 C 16,1 C 14,5 C 93 % 1019,3 hPa 0,0 l/m 0 min 0 min 234 W/m 3,2 km/h (1 Bft) 97,62 %
04.09.2021 11:26 15,0 C 16,1 C 14,5 C 93 % 1019,4 hPa 0,0 l/m 0 min 0 min 229 W/m 9,7 km/h (2 Bft) 100,00 %
04.09.2021 11:28 15,1 C 16,1 C 14,5 C 93 % 1019,3 hPa 0,0 l/m 0 min 0 min 238 W/m 6,4 km/h (2 Bft) 100,00 %
04.09.2021 11:30 15,1 C 16,1 C 14,5 C 93 % 1019,3 hPa 0,0 l/m 0 min 0 min 272 W/m 6,4 km/h (2 Bft) 100,00 %
04.09.2021 11:32 15,3 C 16,1 C 14,5 C 93 % 1019,3 hPa 0,0 l/m 0 min 0 min 299 W/m 9,7 km/h (2 Bft) 97,87 %
04.09.2021 11:34 15,3 C 16,7 C 15,0 C 92 % 1019,2 hPa 0,0 l/m 0 min 0 min 291 W/m 9,7 km/h (2 Bft) 97,87 %
04.09.2021 11:36 15,4 C 16,7 C 15,0 C 92 % 1019,3 hPa 0,0 l/m 0 min 0 min 280 W/m 19,3 km/h (3 Bft) 100,00 %
04.09.2021 11:38 15,4 C 16,1 C 14,5 C 92 % 1019,2 hPa 0,0 l/m 0 min 0 min 277 W/m 9,7 km/h (2 Bft) 100,00 %
04.09.2021 11:40 15,4 C 16,1 C 15,0 C 92 % 1019,2 hPa 0,0 l/m 0 min 0 min 280 W/m 9,7 km/h (2 Bft) 97,87 %
04.09.2021 11:42 15,4 C 16,1 C 15,0 C 91 % 1019,3 hPa 0,0 l/m 0 min 0 min 268 W/m 12,9 km/h (3 Bft) 100,00 %
04.09.2021 11:44 15,4 C 16,1 C 15,0 C 91 % 1019,2 hPa 0,0 l/m 0 min 0 min 278 W/m 9,7 km/h (2 Bft) 100,00 %
04.09.2021 11:46 15,4 C 16,1 C 15,0 C 91 % 1019,2 hPa 0,0 l/m 0 min 0 min 306 W/m 12,9 km/h (3 Bft) 100,00 %
04.09.2021 11:48 15,4 C 16,7 C 15,0 C 91 % 1019,2 hPa 0,0 l/m 0 min 0 min 309 W/m 12,9 km/h (3 Bft) 97,87 %
04.09.2021 11:50 15,5 C 16,7 C 15,0 C 91 % 1019,2 hPa 0,0 l/m 0 min 0 min 319 W/m 9,7 km/h (2 Bft) 97,96 %
04.09.2021 11:52 15,5 C 16,7 C 15,0 C 91 % 1019,2 hPa 0,0 l/m 2 min 0 min 328 W/m 12,9 km/h (3 Bft) 97,87 %
04.09.2021 11:54 15,6 C 16,7 C 15,0 C 91 % 1019,2 hPa 0,0 l/m 2 min 0 min 349 W/m 16,1 km/h (3 Bft) 98,00 %
04.09.2021 11:56 15,6 C 16,7 C 15,0 C 90 % 1019,2 hPa 0,0 l/m 2 min 0 min 327 W/m 12,9 km/h (3 Bft) 97,87 %
04.09.2021 11:58 15,6 C 16,7 C 15,0 C 90 % 1019,2 hPa 0,0 l/m 2 min 0 min 346 W/m 12,9 km/h (3 Bft) 95,12 %
04.09.2021 12:00 15,7 C 16,7 C 15,0 C 90 % 1019,2 hPa 0,0 l/m 2 min 0 min 344 W/m 12,9 km/h (3 Bft) 97,87 %
04.09.2021 12:02 15,7 C 16,7 C 15,0 C 90 % 1019,2 hPa 0,0 l/m 2 min 0 min 358 W/m 12,9 km/h (3 Bft) 97,96 %
04.09.2021 12:04 15,8 C 17,2 C 15,6 C 90 % 1019,2 hPa 0,0 l/m 2 min 0 min 365 W/m 9,7 km/h (2 Bft) 97,87 %
04.09.2021 12:08 15,9 C 16,7 C 15,6 C 90 % 1019,2 hPa 0,0 l/m 4 min 0 min 343 W/m 19,3 km/h (3 Bft) 96,81 %
04.09.2021 12:10 16,0 C 16,7 C 15,6 C 90 % 1019,2 hPa 0,0 l/m 0 min 0 min 327 W/m 12,9 km/h (3 Bft) 95,92 %
04.09.2021 12:12 15,9 C 16,7 C 15,6 C 89 % 1019,2 hPa 0,0 l/m 0 min 0 min 298 W/m 16,1 km/h (3 Bft) 93,62 %
04.09.2021 12:14 16,0 C 16,7 C 15,6 C 89 % 1019,2 hPa 0,0 l/m 0 min 0 min 317 W/m 19,3 km/h (3 Bft) 97,87 %
04.09.2021 12:16 16,0 C 17,2 C 15,6 C 89 % 1019,1 hPa 0,0 l/m 2 min 0 min 373 W/m 12,9 km/h (3 Bft) 97,87 %
04.09.2021 12:18 16,1 C 17,8 C 16,1 C 89 % 1019,1 hPa 0,0 l/m 2 min 0 min 434 W/m 16,1 km/h (3 Bft) 97,56 %
04.09.2021 12:20 16,2 C 17,8 C 16,7 C 89 % 1019,1 hPa 0,0 l/m 2 min 0 min 482 W/m 9,7 km/h (2 Bft) 95,74 %
04.09.2021 12:22 16,3 C 17,8 C 16,7 C 89 % 1019,1 hPa 0,0 l/m 2 min 0 min 407 W/m 16,1 km/h (3 Bft) 95,74 %
04.09.2021 12:24 16,3 C 17,8 C 16,7 C 88 % 1019,1 hPa 0,0 l/m 2 min 0 min 565 W/m 12,9 km/h (3 Bft) 98,00 %
04.09.2021 12:26 16,3 C 17,8 C 16,1 C 88 % 1019,1 hPa 0,0 l/m 2 min 0 min 392 W/m 9,7 km/h (2 Bft) 100,00 %
04.09.2021 12:28 16,4 C 18,3 C 16,1 C 88 % 1019,1 hPa 0,0 l/m 2 min 0 min 367 W/m 6,4 km/h (2 Bft) 97,87 %
04.09.2021 12:30 16,4 C 17,8 C 16,1 C 88 % 1019,1 hPa 0,0 l/m 2 min 0 min 381 W/m 9,7 km/h (2 Bft) 94,00 %
04.09.2021 12:32 16,5 C 17,8 C 16,1 C 88 % 1019,1 hPa 0,0 l/m 2 min 0 min 346 W/m 16,1 km/h (3 Bft) 95,65 %
04.09.2021 12:34 16,5 C 17,8 C 16,1 C 88 % 1019,1 hPa 0,0 l/m 2 min 0 min 403 W/m 12,9 km/h (3 Bft) 95,74 %
04.09.2021 12:36 16,5 C 17,8 C 16,1 C 88 % 1019,0 hPa 0,0 l/m 2 min 0 min 355 W/m 9,7 km/h (2 Bft) 95,74 %
04.09.2021 12:38 16,5 C 17,8 C 16,1 C 88 % 1019,1 hPa 0,0 l/m 2 min 0 min 362 W/m 9,7 km/h (2 Bft) 93,62 %
04.09.2021 12:40 16,6 C 17,8 C 16,1 C 88 % 1019,0 hPa 0,0 l/m 2 min 0 min 381 W/m 9,7 km/h (2 Bft) 95,74 %
04.09.2021 12:42 16,7 C 18,3 C 16,1 C 88 % 1019,0 hPa 0,0 l/m 0 min 0 min 340 W/m 9,7 km/h (2 Bft) 97,87 %
04.09.2021 12:44 16,8 C 18,3 C 16,1 C 87 % 1019,1 hPa 0,0 l/m 2 min 0 min 474 W/m 12,9 km/h (3 Bft) 97,83 %
04.09.2021 12:46 16,8 C 18,3 C 16,1 C 87 % 1019,1 hPa 0,0 l/m 2 min 0 min 466 W/m 9,7 km/h (2 Bft) 97,87 %
04.09.2021 12:48 16,9 C 18,3 C 16,1 C 88 % 1019,1 hPa 0,0 l/m 2 min 0 min 383 W/m 12,9 km/h (3 Bft) 97,87 %
04.09.2021 12:50 16,9 C 18,3 C 16,1 C 87 % 1019,0 hPa 0,0 l/m 2 min 0 min 367 W/m 12,9 km/h (3 Bft) 97,56 %
04.09.2021 12:52 17,0 C 18,3 C 16,1 C 87 % 1019,0 hPa 0,0 l/m 2 min 0 min 376 W/m 12,9 km/h (3 Bft) 100,00 %
04.09.2021 12:54 17,0 C 18,3 C 16,1 C 87 % 1018,9 hPa 0,0 l/m 2 min 0 min 498 W/m 12,9 km/h (3 Bft) 96,00 %
04.09.2021 12:56 17,1 C 18,3 C 16,7 C 87 % 1018,9 hPa 0,0 l/m 2 min 0 min 410 W/m 12,9 km/h (3 Bft) 95,74 %
04.09.2021 12:58 17,1 C 18,3 C 16,1 C 86 % 1018,9 hPa 0,0 l/m 2 min 0 min 467 W/m 9,7 km/h (2 Bft) 95,74 %
04.09.2021 13:00 17,2 C 18,3 C 16,1 C 86 % 1018,9 hPa 0,0 l/m 2 min 0 min 648 W/m 19,3 km/h (3 Bft) 95,65 %
04.09.2021 13:02 17,3 C 18,3 C 16,1 C 86 % 1018,9 hPa 0,0 l/m 2 min 0 min 710 W/m 9,7 km/h (2 Bft) 95,74 %
04.09.2021 13:04 17,4 C 18,9 C 16,1 C 86 % 1018,9 hPa 0,0 l/m 2 min 0 min 722 W/m 12,9 km/h (3 Bft) 95,74 %
04.09.2021 13:06 17,5 C 18,3 C 16,1 C 86 % 1018,9 hPa 0,0 l/m 2 min 0 min 569 W/m 9,7 km/h (2 Bft) 98,00 %
04.09.2021 13:08 17,6 C 18,3 C 16,7 C 86 % 1018,9 hPa 0,0 l/m 2 min 0 min 360 W/m 16,1 km/h (3 Bft) 93,62 %
04.09.2021 13:10 17,7 C 18,9 C 16,7 C 86 % 1018,8 hPa 0,0 l/m 2 min 0 min 594 W/m 12,9 km/h (3 Bft) 97,87 %
04.09.2021 13:12 17,8 C 18,9 C 16,7 C 86 % 1018,8 hPa 0,0 l/m 2 min 0 min 550 W/m 9,7 km/h (2 Bft) 97,83 %
04.09.2021 13:14 17,9 C 18,9 C 16,7 C 85 % 1018,8 hPa 0,0 l/m 2 min 0 min 709 W/m 12,9 km/h (3 Bft) 98,00 %
04.09.2021 13:16 18,0 C 18,9 C 16,7 C 85 % 1018,8 hPa 0,0 l/m 2 min 0 min 701 W/m 16,1 km/h (3 Bft) 97,87 %
04.09.2021 13:18 18,0 C 18,9 C 16,7 C 85 % 1018,8 hPa 0,0 l/m 2 min 0 min 461 W/m 16,1 km/h (3 Bft) 97,87 %
04.09.2021 13:20 18,0 C 18,9 C 16,7 C 84 % 1018,8 hPa 0,0 l/m 0 min 0 min 325 W/m 16,1 km/h (3 Bft) 97,14 %
04.09.2021 13:22 18,0 C 18,9 C 16,7 C 84 % 1018,8 hPa 0,0 l/m 2 min 0 min 374 W/m 9,7 km/h (2 Bft) 97,83 %
04.09.2021 13:24 18,0 C 18,9 C 16,7 C 84 % 1018,8 hPa 0,0 l/m 2 min 0 min 610 W/m 19,3 km/h (3 Bft) 98,11 %
04.09.2021 13:26 18,1 C 18,9 C 16,7 C 84 % 1018,8 hPa 0,0 l/m 2 min 0 min 620 W/m 9,7 km/h (2 Bft) 95,74 %
04.09.2021 13:28 18,1 C 18,9 C 16,1 C 84 % 1018,8 hPa 0,0 l/m 2 min 0 min 722 W/m 19,3 km/h (3 Bft) 98,00 %
04.09.2021 13:30 18,1 C 18,9 C 16,1 C 83 % 1018,8 hPa 0,0 l/m 2 min 0 min 721 W/m 9,7 km/h (2 Bft) 98,00 %
04.09.2021 13:32 18,1 C 19,4 C 16,1 C 83 % 1018,7 hPa 0,0 l/m 2 min 0 min 716 W/m 9,7 km/h (2 Bft) 95,56 %
04.09.2021 13:34 18,2 C 19,4 C 16,7 C 84 % 1018,8 hPa 0,0 l/m 2 min 0 min 730 W/m 22,5 km/h (4 Bft) 97,87 %
04.09.2021 13:36 18,3 C 19,4 C 16,7 C 83 % 1018,7 hPa 0,0 l/m 2 min 0 min 728 W/m 9,7 km/h (2 Bft) 97,87 %
04.09.2021 13:38 18,4 C 20,0 C 16,7 C 83 % 1018,7 hPa 0,0 l/m 2 min 0 min 718 W/m 12,9 km/h (3 Bft) 97,87 %
04.09.2021 13:40 18,4 C 20,0 C 16,7 C 83 % 1018,7 hPa 0,0 l/m 2 min 0 min 697 W/m 12,9 km/h (3 Bft) 100,00 %
04.09.2021 13:42 18,5 C 20,6 C 16,7 C 83 % 1018,7 hPa 0,0 l/m 2 min 0 min 726 W/m 16,1 km/h (3 Bft) 97,83 %
04.09.2021 13:44 18,5 C 20,6 C 16,7 C 83 % 1018,7 hPa 0,0 l/m 2 min 0 min 707 W/m 9,7 km/h (2 Bft) 100,00 %
04.09.2021 13:46 18,6 C 21,1 C 16,7 C 82 % 1018,6 hPa 0,0 l/m 2 min 0 min 716 W/m 9,7 km/h (2 Bft) 98,11 %
04.09.2021 13:48 18,7 C 21,7 C 16,7 C 82 % 1018,7 hPa 0,0 l/m 2 min 0 min 706 W/m 16,1 km/h (3 Bft) 100,00 %
04.09.2021 13:50 18,8 C 22,2 C 16,7 C 82 % 1018,7 hPa 0,0 l/m 2 min 0 min 650 W/m 12,9 km/h (3 Bft) 100,00 %
04.09.2021 13:52 18,9 C 22,8 C 16,7 C 82 % 1018,6 hPa 0,0 l/m 2 min 0 min 722 W/m 12,9 km/h (3 Bft) 100,00 %
04.09.2021 13:54 18,9 C 23,3 C 16,7 C 82 % 1018,6 hPa 0,0 l/m 2 min 0 min 699 W/m 12,9 km/h (3 Bft) 100,00 %
04.09.2021 13:56 19,0 C 23,9 C 16,7 C 81 % 1018,5 hPa 0,0 l/m 2 min 0 min 705 W/m 19,3 km/h (3 Bft) 100,00 %
04.09.2021 13:58 19,0 C 23,3 C 16,7 C 81 % 1018,5 hPa 0,0 l/m 2 min 0 min 711 W/m 16,1 km/h (3 Bft) 100,00 %
04.09.2021 14:00 19,1 C 23,9 C 16,7 C 81 % 1018,6 hPa 0,0 l/m 2 min 0 min 718 W/m 12,9 km/h (3 Bft) 100,00 %
04.09.2021 14:02 19,3 C 23,9 C 17,3 C 81 % 1018,6 hPa 0,0 l/m 2 min 0 min 720 W/m 9,7 km/h (2 Bft) 100,00 %
04.09.2021 14:04 19,4 C 24,4 C 17,3 C 81 % 1018,6 hPa 0,0 l/m 2 min 0 min 728 W/m 16,1 km/h (3 Bft) 100,00 %
04.09.2021 14:06 19,5 C 25,0 C 17,3 C 81 % 1018,6 hPa 0,0 l/m 2 min 0 min 697 W/m 9,7 km/h (2 Bft) 100,00 %
04.09.2021 14:08 19,6 C 25,0 C 17,3 C 80 % 1018,6 hPa 0,0 l/m 2 min 0 min 717 W/m 12,9 km/h (3 Bft) 97,83 %
04.09.2021 14:10 19,6 C 25,0 C 17,3 C 80 % 1018,6 hPa 0,0 l/m 2 min 0 min 718 W/m 9,7 km/h (2 Bft) 100,00 %
04.09.2021 14:12 19,7 C 25,6 C 17,3 C 79 % 1018,6 hPa 0,0 l/m 2 min 0 min 718 W/m 12,9 km/h (3 Bft) 100,00 %
04.09.2021 14:14 19,7 C 25,0 C 17,3 C 79 % 1018,6 hPa 0,0 l/m 2 min 0 min 719 W/m 12,9 km/h (3 Bft) 100,00 %
04.09.2021 14:16 19,7 C 24,4 C 17,3 C 79 % 1018,6 hPa 0,0 l/m 2 min 0 min 699 W/m 9,7 km/h (2 Bft) 100,00 %
04.09.2021 14:18 19,8 C 24,4 C 17,3 C 79 % 1018,6 hPa 0,0 l/m 2 min 0 min 708 W/m 12,9 km/h (3 Bft) 96,23 %
04.09.2021 14:20 19,8 C 23,9 C 17,3 C 79 % 1018,6 hPa 0,0 l/m 2 min 0 min 708 W/m 19,3 km/h (3 Bft) 97,87 %
04.09.2021 14:22 19,8 C 23,9 C 17,3 C 79 % 1018,6 hPa 0,0 l/m 2 min 0 min 705 W/m 9,7 km/h (2 Bft) 97,87 %
04.09.2021 14:24 19,8 C 24,4 C 17,3 C 79 % 1018,7 hPa 0,0 l/m 2 min 0 min 720 W/m 16,1 km/h (3 Bft) 93,88 %
04.09.2021 14:26 19,8 C 24,4 C 17,3 C 79 % 1018,7 hPa 0,0 l/m 2 min 0 min 707 W/m 9,7 km/h (2 Bft) 100,00 %
04.09.2021 14:28 19,8 C 24,4 C 17,3 C 79 % 1018,7 hPa 0,0 l/m 2 min 0 min 713 W/m 9,7 km/h (2 Bft) 100,00 %
04.09.2021 14:30 19,8 C 25,0 C 17,3 C 79 % 1018,6 hPa 0,0 l/m 2 min 0 min 717 W/m 12,9 km/h (3 Bft) 100,00 %
04.09.2021 14:32 19,9 C 25,0 C 17,3 C 79 % 1018,7 hPa 0,0 l/m 2 min 0 min 702 W/m 12,9 km/h (3 Bft) 97,87 %
04.09.2021 14:34 19,9 C 25,0 C 17,3 C 78 % 1018,7 hPa 0,0 l/m 2 min 0 min 706 W/m 19,3 km/h (3 Bft) 100,00 %
04.09.2021 14:36 20,0 C 25,0 C 17,3 C 78 % 1018,7 hPa 0,0 l/m 2 min 0 min 699 W/m 9,7 km/h (2 Bft) 100,00 %
04.09.2021 14:38 20,0 C 25,0 C 17,3 C 79 % 1018,7 hPa 0,0 l/m 2 min 0 min 714 W/m 16,1 km/h (3 Bft) 100,00 %
04.09.2021 14:40 20,1 C 25,0 C 17,3 C 79 % 1018,7 hPa 0,0 l/m 2 min 0 min 688 W/m 12,9 km/h (3 Bft) 100,00 %
04.09.2021 14:42 20,1 C 25,0 C 17,3 C 78 % 1018,7 hPa 0,0 l/m 2 min 0 min 702 W/m 12,9 km/h (3 Bft) 97,83 %
04.09.2021 14:44 20,1 C 25,0 C 17,3 C 78 % 1018,7 hPa 0,0 l/m 2 min 0 min 699 W/m 9,7 km/h (2 Bft) 100,00 %
04.09.2021 14:46 20,1 C 25,0 C 17,3 C 78 % 1018,7 hPa 0,0 l/m 2 min 0 min 686 W/m 9,7 km/h (2 Bft) 95,65 %
04.09.2021 14:48 20,3 C 25,0 C 17,3 C 78 % 1018,6 hPa 0,0 l/m 2 min 0 min 697 W/m 16,1 km/h (3 Bft) 93,62 %
04.09.2021 14:50 20,3 C 25,0 C 17,8 C 78 % 1018,6 hPa 0,0 l/m 2 min 0 min 696 W/m 19,3 km/h (3 Bft) 97,87 %
04.09.2021 14:52 20,3 C 25,0 C 17,3 C 78 % 1018,6 hPa 0,0 l/m 2 min 0 min 688 W/m 16,1 km/h (3 Bft) 97,87 %
04.09.2021 14:54 20,4 C 25,6 C 17,8 C 78 % 1018,6 hPa 0,0 l/m 2 min 0 min 691 W/m 9,7 km/h (2 Bft) 95,74 %
04.09.2021 14:56 20,4 C 25,6 C 17,8 C 78 % 1018,6 hPa 0,0 l/m 2 min 0 min 688 W/m 9,7 km/h (2 Bft) 97,96 %
04.09.2021 14:58 20,4 C 25,6 C 17,3 C 77 % 1018,6 hPa 0,0 l/m 2 min 0 min 686 W/m 9,7 km/h (2 Bft) 97,87 %
04.09.2021 15:00 20,5 C 25,0 C 17,8 C 77 % 1018,6 hPa 0,0 l/m 2 min 0 min 684 W/m 16,1 km/h (3 Bft) 97,87 %
04.09.2021 15:02 20,5 C 25,6 C 17,3 C 77 % 1018,5 hPa 0,0 l/m 2 min 0 min 683 W/m 12,9 km/h (3 Bft) 95,74 %
04.09.2021 15:04 20,5 C 25,6 C 17,3 C 77 % 1018,5 hPa 0,0 l/m 2 min 0 min 685 W/m 12,9 km/h (3 Bft) 96,00 %
04.09.2021 15:06 20,5 C 25,0 C 17,3 C 77 % 1018,5 hPa 0,0 l/m 2 min 0 min 675 W/m 19,3 km/h (3 Bft) 97,30 %
04.09.2021 15:08 20,4 C 25,0 C 17,3 C 77 % 1018,5 hPa 0,0 l/m 2 min 0 min 671 W/m 16,1 km/h (3 Bft) 95,74 %
04.09.2021 15:10 20,4 C 25,0 C 17,3 C 77 % 1018,4 hPa 0,0 l/m 2 min 0 min 675 W/m 12,9 km/h (3 Bft) 95,74 %
04.09.2021 15:12 20,4 C 25,0 C 17,3 C 78 % 1018,5 hPa 0,0 l/m 2 min 0 min 672 W/m 12,9 km/h (3 Bft) 95,74 %
04.09.2021 15:14 20,4 C 24,4 C 17,3 C 77 % 1018,4 hPa 0,0 l/m 2 min 0 min 670 W/m 9,7 km/h (2 Bft) 95,74 %
04.09.2021 15:16 20,5 C 25,0 C 17,3 C 77 % 1018,5 hPa 0,0 l/m 2 min 0 min 662 W/m 9,7 km/h (2 Bft) 95,74 %
04.09.2021 15:18 20,5 C 25,6 C 17,8 C 78 % 1018,5 hPa 0,0 l/m 2 min 0 min 660 W/m 9,7 km/h (2 Bft) 96,23 %
04.09.2021 15:20 20,6 C 25,0 C 17,8 C 77 % 1018,5 hPa 0,0 l/m 2 min 0 min 654 W/m 16,1 km/h (3 Bft) 93,88 %
04.09.2021 15:22 20,5 C 25,0 C 17,3 C 77 % 1018,5 hPa 0,0 l/m 2 min 0 min 657 W/m 16,1 km/h (3 Bft) 95,74 %
04.09.2021 15:24 20,5 C 24,4 C 17,3 C 76 % 1018,5 hPa 0,0 l/m 2 min 0 min 654 W/m 12,9 km/h (3 Bft) 100,00 %
04.09.2021 15:26 20,5 C 25,0 C 17,3 C 77 % 1018,4 hPa 0,0 l/m 2 min 0 min 651 W/m 12,9 km/h (3 Bft) 95,74 %
04.09.2021 15:28 20,6 C 25,0 C 17,8 C 77 % 1018,5 hPa 0,0 l/m 2 min 0 min 654 W/m 12,9 km/h (3 Bft) 93,48 %
04.09.2021 15:30 20,6 C 25,0 C 17,8 C 77 % 1018,4 hPa 0,0 l/m 2 min 0 min 647 W/m 9,7 km/h (2 Bft) 96,30 %
04.09.2021 15:32 20,6 C 25,6 C 17,8 C 77 % 1018,4 hPa 0,0 l/m 2 min 0 min 640 W/m 9,7 km/h (2 Bft) 95,65 %
04.09.2021 15:34 20,7 C 25,6 C 17,8 C 77 % 1018,4 hPa 0,0 l/m 2 min 0 min 640 W/m 12,9 km/h (3 Bft) 94,00 %
04.09.2021 15:36 20,7 C 25,0 C 17,8 C 77 % 1018,4 hPa 0,0 l/m 2 min 0 min 622 W/m 16,1 km/h (3 Bft) 95,74 %
04.09.2021 15:38 20,7 C 25,0 C 17,8 C 77 % 1018,5 hPa 0,0 l/m 2 min 0 min 627 W/m 9,7 km/h (2 Bft) 95,74 %
04.09.2021 15:40 20,6 C 25,0 C 17,8 C 77 % 1018,5 hPa 0,0 l/m 2 min 0 min 629 W/m 6,4 km/h (2 Bft) 93,62 %
04.09.2021 15:42 20,6 C 25,6 C 17,8 C 77 % 1018,5 hPa 0,0 l/m 2 min 0 min 626 W/m 12,9 km/h (3 Bft) 93,48 %
04.09.2021 15:44 20,6 C 25,6 C 17,8 C 77 % 1018,4 hPa 0,0 l/m 2 min 0 min 619 W/m 16,1 km/h (3 Bft) 95,74 %
04.09.2021 15:46 20,6 C 25,6 C 17,8 C 77 % 1018,4 hPa 0,0 l/m 2 min 0 min 621 W/m 16,1 km/h (3 Bft) 95,74 %
04.09.2021 15:48 20,6 C 25,6 C 17,8 C 77 % 1018,4 hPa 0,0 l/m 2 min 0 min 613 W/m 16,1 km/h (3 Bft) 93,62 %
04.09.2021 15:50 20,5 C 25,6 C 17,8 C 77 % 1018,4 hPa 0,0 l/m 2 min 0 min 607 W/m 9,7 km/h (2 Bft) 95,74 %
04.09.2021 15:52 20,6 C 25,0 C 17,8 C 77 % 1018,3 hPa 0,0 l/m 2 min 0 min 608 W/m 6,4 km/h (2 Bft) 93,62 %
04.09.2021 15:54 20,6 C 25,0 C 17,8 C 77 % 1018,3 hPa 0,0 l/m 2 min 0 min 598 W/m 19,3 km/h (3 Bft) 95,65 %
04.09.2021 15:56 20,6 C 25,0 C 17,3 C 77 % 1018,4 hPa 0,0 l/m 2 min 0 min 599 W/m 16,1 km/h (3 Bft) 95,74 %
04.09.2021 15:58 20,6 C 25,6 C 17,8 C 76 % 1018,4 hPa 0,0 l/m 2 min 0 min 597 W/m 16,1 km/h (3 Bft) 95,74 %
04.09.2021 16:00 20,6 C 25,6 C 17,8 C 77 % 1018,3 hPa 0,0 l/m 2 min 0 min 591 W/m 6,4 km/h (2 Bft) 93,62 %
04.09.2021 16:02 20,6 C 25,0 C 17,8 C 77 % 1018,3 hPa 0,0 l/m 2 min 0 min 589 W/m 12,9 km/h (3 Bft) 97,87 %
04.09.2021 16:04 20,6 C 25,0 C 17,8 C 77 % 1018,3 hPa 0,0 l/m 2 min 0 min 589 W/m 6,4 km/h (2 Bft) 97,37 %
04.09.2021 16:06 20,6 C 25,0 C 17,8 C 77 % 1018,3 hPa 0,0 l/m 2 min 0 min 580 W/m 6,4 km/h (2 Bft) 97,87 %
04.09.2021 16:08 20,7 C 25,0 C 17,8 C 77 % 1018,3 hPa 0,0 l/m 2 min 0 min 576 W/m 16,1 km/h (3 Bft) 97,83 %
04.09.2021 16:10 20,8 C 26,1 C 17,8 C 77 % 1018,3 hPa 0,0 l/m 2 min 0 min 571 W/m 9,7 km/h (2 Bft) 95,74 %
04.09.2021 16:12 20,8 C 27,2 C 17,8 C 76 % 1018,2 hPa 0,0 l/m 2 min 0 min 563 W/m 12,9 km/h (3 Bft) 100,00 %
04.09.2021 16:14 20,8 C 26,7 C 17,8 C 76 % 1018,2 hPa 0,0 l/m 2 min 0 min 564 W/m 12,9 km/h (3 Bft) 100,00 %
04.09.2021 16:16 20,8 C 27,2 C 17,8 C 77 % 1018,3 hPa 0,0 l/m 2 min 0 min 554 W/m 6,4 km/h (2 Bft) 100,00 %
04.09.2021 16:18 20,9 C 27,2 C 17,8 C 77 % 1018,2 hPa 0,0 l/m 2 min 0 min 549 W/m 6,4 km/h (2 Bft) 100,00 %
04.09.2021 16:20 21,0 C 27,8 C 17,8 C 76 % 1018,2 hPa 0,0 l/m 2 min 0 min 543 W/m 12,9 km/h (3 Bft) 97,87 %
04.09.2021 16:22 21,0 C 27,2 C 18,4 C 76 % 1018,2 hPa 0,0 l/m 2 min 0 min 547 W/m 12,9 km/h (3 Bft) 97,87 %
04.09.2021 16:24 21,1 C 27,2 C 18,4 C 76 % 1018,1 hPa 0,0 l/m 2 min 0 min 538 W/m 9,7 km/h (2 Bft) 97,87 %
04.09.2021 16:26 21,1 C 27,2 C 18,4 C 76 % 1018,2 hPa 0,0 l/m 2 min 0 min 527 W/m 9,7 km/h (2 Bft) 100,00 %
04.09.2021 16:28 21,0 C 26,1 C 17,8 C 75 % 1018,1 hPa 0,0 l/m 2 min 0 min 530 W/m 12,9 km/h (3 Bft) 100,00 %
04.09.2021 16:30 20,9 C 26,1 C 17,8 C 75 % 1018,2 hPa 0,0 l/m 2 min 0 min 528 W/m 19,3 km/h (3 Bft) 97,83 %
04.09.2021 16:32 20,9 C 26,1 C 17,8 C 76 % 1018,1 hPa 0,0 l/m 2 min 0 min 519 W/m 16,1 km/h (3 Bft) 100,00 %
04.09.2021 16:34 20,8 C 26,1 C 17,8 C 76 % 1018,1 hPa 0,0 l/m 2 min 0 min 516 W/m 16,1 km/h (3 Bft) 100,00 %
04.09.2021 16:36 20,8 C 26,7 C 18,4 C 76 % 1018,1 hPa 0,0 l/m 2 min 0 min 511 W/m 16,1 km/h (3 Bft) 97,87 %
04.09.2021 16:38 20,8 C 26,7 C 18,4 C 76 % 1018,0 hPa 0,0 l/m 2 min 0 min 505 W/m 16,1 km/h (3 Bft) 100,00 %
04.09.2021 16:40 20,9 C 27,2 C 18,4 C 77 % 1018,0 hPa 0,0 l/m 2 min 0 min 499 W/m 19,3 km/h (3 Bft) 100,00 %
04.09.2021 16:42 21,0 C 27,2 C 18,4 C 76 % 1018,0 hPa 0,0 l/m 2 min 0 min 495 W/m 9,7 km/h (2 Bft) 97,87 %
04.09.2021 16:44 21,0 C 27,2 C 18,4 C 76 % 1018,0 hPa 0,0 l/m 2 min 0 min 487 W/m 12,9 km/h (3 Bft) 100,00 %
04.09.2021 16:46 21,0 C 27,8 C 18,9 C 76 % 1018,0 hPa 0,0 l/m 2 min 0 min 483 W/m 6,4 km/h (2 Bft) 100,00 %
04.09.2021 16:48 21,0 C 27,2 C 18,9 C 76 % 1018,0 hPa 0,0 l/m 2 min 0 min 478 W/m 19,3 km/h (3 Bft) 100,00 %
04.09.2021 16:50 21,0 C 27,2 C 18,9 C 75 % 1018,0 hPa 0,0 l/m 2 min 0 min 474 W/m 12,9 km/h (3 Bft) 100,00 %
04.09.2021 16:52 21,0 C 27,2 C 18,9 C 75 % 1018,0 hPa 0,0 l/m 2 min 0 min 470 W/m 9,7 km/h (2 Bft) 100,00 %
04.09.2021 16:54 21,0 C 27,2 C 18,9 C 76 % 1018,0 hPa 0,0 l/m 2 min 0 min 467 W/m 6,4 km/h (2 Bft) 97,87 %
04.09.2021 16:56 21,0 C 26,7 C 18,9 C 76 % 1018,0 hPa 0,0 l/m 2 min 0 min 459 W/m 12,9 km/h (3 Bft) 100,00 %
04.09.2021 16:58 21,0 C 26,7 C 18,9 C 75 % 1018,0 hPa 0,0 l/m 2 min 0 min 455 W/m 12,9 km/h (3 Bft) 100,00 %
04.09.2021 17:00 21,0 C 26,1 C 18,9 C 75 % 1018,0 hPa 0,0 l/m 2 min 0 min 452 W/m 16,1 km/h (3 Bft) 100,00 %
04.09.2021 17:02 21,0 C 26,7 C 18,9 C 76 % 1017,9 hPa 0,0 l/m 2 min 0 min 444 W/m 16,1 km/h (3 Bft) 97,83 %
04.09.2021 17:04 21,0 C 26,7 C 18,9 C 75 % 1017,9 hPa 0,0 l/m 2 min 0 min 439 W/m 16,1 km/h (3 Bft) 95,74 %
04.09.2021 17:06 21,0 C 26,7 C 18,9 C 75 % 1017,9 hPa 0,0 l/m 2 min 0 min 437 W/m 9,7 km/h (2 Bft) 97,87 %
04.09.2021 17:08 21,0 C 26,7 C 18,9 C 76 % 1017,9 hPa 0,0 l/m 2 min 0 min 430 W/m 12,9 km/h (3 Bft) 97,87 %
04.09.2021 17:10 21,0 C 27,2 C 18,9 C 76 % 1017,9 hPa 0,0 l/m 2 min 0 min 426 W/m 9,7 km/h (2 Bft) 97,87 %
04.09.2021 17:12 21,0 C 26,7 C 18,9 C 75 % 1017,9 hPa 0,0 l/m 2 min 0 min 422 W/m 9,7 km/h (2 Bft) 97,83 %
04.09.2021 17:14 21,1 C 26,7 C 18,9 C 75 % 1017,9 hPa 0,0 l/m 2 min 0 min 414 W/m 22,5 km/h (4 Bft) 97,87 %
04.09.2021 17:16 21,2 C 26,7 C 18,9 C 75 % 1017,9 hPa 0,0 l/m 2 min 0 min 411 W/m 6,4 km/h (2 Bft) 97,87 %
04.09.2021 17:18 21,2 C 26,7 C 18,9 C 75 % 1017,9 hPa 0,0 l/m 2 min 0 min 402 W/m 12,9 km/h (3 Bft) 97,87 %
04.09.2021 17:20 21,1 C 26,7 C 18,9 C 75 % 1017,9 hPa 0,0 l/m 2 min 0 min 395 W/m 12,9 km/h (3 Bft) 97,87 %
04.09.2021 17:22 21,0 C 26,1 C 18,9 C 75 % 1017,9 hPa 0,0 l/m 2 min 0 min 384 W/m 16,1 km/h (3 Bft) 95,74 %
04.09.2021 17:24 21,0 C 25,6 C 18,9 C 75 % 1017,9 hPa 0,0 l/m 2 min 0 min 384 W/m 19,3 km/h (3 Bft) 97,83 %
04.09.2021 17:26 21,0 C 26,1 C 18,9 C 75 % 1017,9 hPa 0,0 l/m 2 min 0 min 381 W/m 9,7 km/h (2 Bft) 97,87 %
04.09.2021 17:28 21,0 C 26,1 C 18,9 C 75 % 1017,8 hPa 0,0 l/m 2 min 0 min 375 W/m 12,9 km/h (3 Bft) 97,87 %
04.09.2021 17:30 21,0 C 25,6 C 18,9 C 75 % 1017,8 hPa 0,0 l/m 2 min 0 min 376 W/m 12,9 km/h (3 Bft) 97,87 %
04.09.2021 17:32 21,0 C 25,6 C 18,9 C 75 % 1017,8 hPa 0,0 l/m 2 min 0 min 370 W/m 12,9 km/h (3 Bft) 97,87 %
04.09.2021 17:34 21,0 C 26,1 C 18,9 C 76 % 1017,8 hPa 0,0 l/m 2 min 0 min 365 W/m 12,9 km/h (3 Bft) 97,87 %
04.09.2021 17:36 21,0 C 25,6 C 18,9 C 75 % 1017,8 hPa 0,0 l/m 2 min 0 min 358 W/m 12,9 km/h (3 Bft) 97,83 %
04.09.2021 17:38 21,0 C 25,0 C 18,9 C 76 % 1017,9 hPa 0,0 l/m 2 min 0 min 348 W/m 12,9 km/h (3 Bft) 97,87 %
04.09.2021 17:40 21,0 C 25,0 C 18,9 C 75 % 1017,8 hPa 0,0 l/m 2 min 0 min 342 W/m 16,1 km/h (3 Bft) 97,87 %
04.09.2021 17:42 21,0 C 24,4 C 18,4 C 75 % 1017,9 hPa 0,0 l/m 2 min 0 min 335 W/m 12,9 km/h (3 Bft) 97,87 %
04.09.2021 17:44 21,0 C 25,0 C 18,9 C 75 % 1017,9 hPa 0,0 l/m 2 min 0 min 332 W/m 12,9 km/h (3 Bft) 100,00 %
04.09.2021 17:46 21,0 C 25,0 C 18,9 C 75 % 1017,9 hPa 0,0 l/m 2 min 0 min 328 W/m 12,9 km/h (3 Bft) 100,00 %
04.09.2021 17:48 21,0 C 24,4 C 18,9 C 75 % 1017,8 hPa 0,0 l/m 2 min 0 min 324 W/m 16,1 km/h (3 Bft) 100,00 %
04.09.2021 17:50 21,0 C 25,0 C 18,9 C 75 % 1017,9 hPa 0,0 l/m 2 min 0 min 319 W/m 12,9 km/h (3 Bft) 100,00 %
04.09.2021 17:52 21,1 C 25,0 C 18,9 C 75 % 1017,8 hPa 0,0 l/m 2 min 0 min 313 W/m 12,9 km/h (3 Bft) 100,00 %
04.09.2021 17:54 21,1 C 25,0 C 18,9 C 75 % 1017,9 hPa 0,0 l/m 2 min 0 min 305 W/m 12,9 km/h (3 Bft) 97,87 %
04.09.2021 17:56 21,1 C 25,0 C 18,9 C 75 % 1017,9 hPa 0,0 l/m 2 min 0 min 300 W/m 12,9 km/h (3 Bft) 97,87 %
04.09.2021 17:58 21,0 C 25,0 C 18,9 C 75 % 1017,9 hPa 0,0 l/m 2 min 0 min 295 W/m 12,9 km/h (3 Bft) 97,87 %
04.09.2021 18:00 21,0 C 25,0 C 18,9 C 75 % 1017,9 hPa 0,0 l/m 2 min 0 min 291 W/m 16,1 km/h (3 Bft) 95,65 %
04.09.2021 18:02 21,0 C 25,0 C 18,9 C 76 % 1017,8 hPa 0,0 l/m 2 min 0 min 288 W/m 16,1 km/h (3 Bft) 97,87 %
04.09.2021 18:04 21,0 C 25,6 C 18,9 C 76 % 1017,8 hPa 0,0 l/m 2 min 0 min 281 W/m 12,9 km/h (3 Bft) 95,74 %
04.09.2021 18:08 21,0 C 25,0 C 18,9 C 75 % 1017,8 hPa 0,0 l/m 4 min 0 min 270 W/m 16,1 km/h (3 Bft) 97,00 %
04.09.2021 18:10 21,0 C 25,0 C 18,9 C 75 % 1017,7 hPa 0,0 l/m 2 min 0 min 259 W/m 12,9 km/h (3 Bft) 97,87 %
04.09.2021 18:12 21,0 C 25,0 C 18,9 C 75 % 1017,7 hPa 0,0 l/m 2 min 0 min 255 W/m 9,7 km/h (2 Bft) 97,87 %
04.09.2021 18:14 20,9 C 24,4 C 18,9 C 76 % 1017,7 hPa 0,0 l/m 2 min 0 min 250 W/m 12,9 km/h (3 Bft) 97,87 %
04.09.2021 18:16 21,0 C 25,0 C 18,9 C 76 % 1017,7 hPa 0,0 l/m 2 min 0 min 243 W/m 12,9 km/h (3 Bft) 95,65 %
04.09.2021 18:18 21,0 C 25,0 C 18,9 C 76 % 1017,8 hPa 0,0 l/m 2 min 0 min 237 W/m 12,9 km/h (3 Bft) 91,49 %
04.09.2021 18:20 21,0 C 25,0 C 18,9 C 76 % 1017,7 hPa 0,0 l/m 2 min 0 min 231 W/m 16,1 km/h (3 Bft) 93,62 %
04.09.2021 18:22 21,0 C 25,0 C 18,9 C 75 % 1017,7 hPa 0,0 l/m 2 min 0 min 222 W/m 6,4 km/h (2 Bft) 95,74 %
04.09.2021 18:24 21,0 C 25,0 C 18,9 C 75 % 1017,7 hPa 0,0 l/m 2 min 0 min 216 W/m 16,1 km/h (3 Bft) 95,74 %
04.09.2021 18:26 21,0 C 25,0 C 18,9 C 75 % 1017,7 hPa 0,0 l/m 2 min 0 min 209 W/m 9,7 km/h (2 Bft) 95,74 %
04.09.2021 18:28 21,1 C 25,0 C 18,9 C 76 % 1017,6 hPa 0,0 l/m 2 min 0 min 202 W/m 9,7 km/h (2 Bft) 93,48 %
04.09.2021 18:30 21,0 C 24,4 C 18,9 C 75 % 1017,7 hPa 0,0 l/m 2 min 0 min 195 W/m 16,1 km/h (3 Bft) 95,74 %
04.09.2021 18:32 21,1 C 25,0 C 18,9 C 75 % 1017,7 hPa 0,0 l/m 2 min 0 min 189 W/m 9,7 km/h (2 Bft) 97,87 %
04.09.2021 18:34 21,1 C 25,0 C 18,9 C 75 % 1017,6 hPa 0,0 l/m 2 min 0 min 183 W/m 9,7 km/h (2 Bft) 95,74 %
04.09.2021 18:36 21,0 C 25,0 C 18,9 C 75 % 1017,6 hPa 0,0 l/m 2 min 0 min 178 W/m 6,4 km/h (2 Bft) 93,62 %
04.09.2021 18:38 21,0 C 25,0 C 18,9 C 75 % 1017,6 hPa 0,0 l/m 2 min 0 min 172 W/m 12,9 km/h (3 Bft) 95,65 %
04.09.2021 18:40 21,0 C 24,4 C 18,4 C 75 % 1017,6 hPa 0,0 l/m 2 min 0 min 164 W/m 19,3 km/h (3 Bft) 95,74 %
04.09.2021 18:42 20,9 C 24,4 C 18,4 C 75 % 1017,6 hPa 0,0 l/m 2 min 0 min 157 W/m 12,9 km/h (3 Bft) 95,74 %
04.09.2021 18:44 20,9 C 24,4 C 18,4 C 75 % 1017,6 hPa 0,0 l/m 2 min 0 min 152 W/m 9,7 km/h (2 Bft) 97,87 %
04.09.2021 18:46 20,9 C 23,9 C 18,4 C 76 % 1017,6 hPa 0,0 l/m 2 min 0 min 146 W/m 12,9 km/h (3 Bft) 97,87 %
04.09.2021 18:48 20,9 C 22,8 C 18,4 C 75 % 1017,7 hPa 0,0 l/m 2 min 0 min 116 W/m 6,4 km/h (2 Bft) 97,87 %
04.09.2021 18:50 20,9 C 22,2 C 18,4 C 75 % 1017,7 hPa 0,0 l/m 0 min 0 min 66 W/m 6,4 km/h (2 Bft) 97,83 %
04.09.2021 18:52 20,8 C 21,7 C 18,4 C 76 % 1017,7 hPa 0,0 l/m 0 min 0 min 62 W/m 12,9 km/h (3 Bft) 95,74 %
04.09.2021 18:54 20,6 C 21,1 C 17,8 C 76 % 1017,7 hPa 0,0 l/m 0 min 0 min 60 W/m 6,4 km/h (2 Bft) 97,87 %
04.09.2021 18:56 20,5 C 20,6 C 17,8 C 76 % 1017,6 hPa 0,0 l/m 0 min 0 min 58 W/m 6,4 km/h (2 Bft) 97,87 %
04.09.2021 18:58 20,4 C 20,6 C 17,8 C 77 % 1017,6 hPa 0,0 l/m 0 min 0 min 57 W/m 9,7 km/h (2 Bft) 95,74 %
04.09.2021 19:00 20,4 C 20,6 C 17,8 C 77 % 1017,6 hPa 0,0 l/m 0 min 0 min 56 W/m 9,7 km/h (2 Bft) 95,74 %
04.09.2021 19:02 20,3 C 20,0 C 17,8 C 78 % 1017,6 hPa 0,0 l/m 0 min 0 min 54 W/m 9,7 km/h (2 Bft) 95,65 %
04.09.2021 19:04 20,3 C 20,0 C 17,3 C 78 % 1017,6 hPa 0,0 l/m 0 min 0 min 54 W/m 9,7 km/h (2 Bft) 97,73 %
04.09.2021 19:06 20,1 C 20,0 C 17,3 C 78 % 1017,6 hPa 0,0 l/m 0 min 0 min 53 W/m 9,7 km/h (2 Bft) 97,87 %
04.09.2021 19:08 20,1 C 19,4 C 17,3 C 78 % 1017,7 hPa 0,0 l/m 0 min 0 min 51 W/m 6,4 km/h (2 Bft) 100,00 %
04.09.2021 19:10 20,0 C 19,4 C 17,3 C 78 % 1017,7 hPa 0,0 l/m 0 min 0 min 50 W/m 12,9 km/h (3 Bft) 100,00 %
04.09.2021 19:12 20,0 C 19,4 C 17,3 C 79 % 1017,7 hPa 0,0 l/m 0 min 0 min 48 W/m 6,4 km/h (2 Bft) 97,87 %
04.09.2021 19:14 19,9 C 19,4 C 17,3 C 79 % 1017,7 hPa 0,0 l/m 0 min 0 min 47 W/m 6,4 km/h (2 Bft) 100,00 %
04.09.2021 19:16 19,8 C 19,4 C 17,3 C 79 % 1017,7 hPa 0,0 l/m 0 min 0 min 46 W/m 6,4 km/h (2 Bft) 95,74 %
04.09.2021 19:18 19,8 C 18,9 C 16,7 C 79 % 1017,7 hPa 0,0 l/m 0 min 0 min 44 W/m 6,4 km/h (2 Bft) 97,87 %
04.09.2021 19:20 19,7 C 18,9 C 16,7 C 80 % 1017,7 hPa 0,0 l/m 0 min 0 min 42 W/m 9,7 km/h (2 Bft) 97,83 %
04.09.2021 19:22 19,6 C 18,9 C 16,7 C 80 % 1017,7 hPa 0,0 l/m 0 min 0 min 41 W/m 6,4 km/h (2 Bft) 95,74 %
04.09.2021 19:24 19,5 C 18,9 C 16,7 C 80 % 1017,6 hPa 0,0 l/m 0 min 0 min 39 W/m 6,4 km/h (2 Bft) 95,74 %
04.09.2021 19:26 19,5 C 18,9 C 16,7 C 81 % 1017,7 hPa 0,0 l/m 0 min 0 min 37 W/m 6,4 km/h (2 Bft) 97,87 %
04.09.2021 19:28 19,4 C 18,9 C 16,7 C 81 % 1017,6 hPa 0,0 l/m 0 min 0 min 34 W/m 6,4 km/h (2 Bft) 95,74 %
04.09.2021 19:30 19,3 C 18,9 C 16,7 C 81 % 1017,7 hPa 0,0 l/m 0 min 0 min 33 W/m 6,4 km/h (2 Bft) 97,87 %
04.09.2021 19:32 19,3 C 18,3 C 16,1 C 81 % 1017,7 hPa 0,0 l/m 0 min 0 min 32 W/m 6,4 km/h (2 Bft) 97,83 %
04.09.2021 19:34 19,2 C 18,3 C 16,1 C 81 % 1017,7 hPa 0,0 l/m 0 min 0 min 30 W/m 6,4 km/h (2 Bft) 97,87 %
04.09.2021 19:36 19,1 C 18,3 C 16,1 C 81 % 1017,7 hPa 0,0 l/m 0 min 0 min 28 W/m 12,9 km/h (3 Bft) 97,87 %
04.09.2021 19:38 19,1 C 18,3 C 16,1 C 81 % 1017,7 hPa 0,0 l/m 0 min 0 min 27 W/m 3,2 km/h (1 Bft) 97,87 %
04.09.2021 19:40 19,0 C 18,3 C 16,1 C 82 % 1017,7 hPa 0,0 l/m 0 min 0 min 25 W/m 3,2 km/h (1 Bft) 97,87 %
04.09.2021 19:42 19,0 C 18,3 C 16,1 C 82 % 1017,7 hPa 0,0 l/m 0 min 0 min 24 W/m 3,2 km/h (1 Bft) 95,74 %
04.09.2021 19:44 19,0 C 18,3 C 16,1 C 82 % 1017,7 hPa 0,0 l/m 0 min 0 min 23 W/m 3,2 km/h (1 Bft) 95,65 %
04.09.2021 19:46 18,9 C 17,8 C 16,1 C 82 % 1017,7 hPa 0,0 l/m 0 min 0 min 21 W/m 3,2 km/h (1 Bft) 97,87 %
04.09.2021 19:48 18,9 C 17,8 C 15,6 C 82 % 1017,7 hPa 0,0 l/m 0 min 0 min 19 W/m 6,4 km/h (2 Bft) 97,87 %
04.09.2021 19:50 18,8 C 17,8 C 15,6 C 83 % 1017,7 hPa 0,0 l/m 0 min 0 min 18 W/m 6,4 km/h (2 Bft) 97,83 %
04.09.2021 19:52 18,8 C 17,8 C 15,6 C 83 % 1017,8 hPa 0,0 l/m 0 min 0 min 17 W/m 6,4 km/h (2 Bft) 100,00 %
04.09.2021 19:54 18,7 C 17,8 C 15,6 C 83 % 1017,8 hPa 0,0 l/m 0 min 0 min 16 W/m 6,4 km/h (2 Bft) 100,00 %
04.09.2021 19:56 18,6 C 17,8 C 15,6 C 83 % 1017,8 hPa 0,0 l/m 0 min 0 min 14 W/m 3,2 km/h (1 Bft) 100,00 %
04.09.2021 19:58 18,6 C 17,8 C 15,6 C 83 % 1017,8 hPa 0,0 l/m 0 min 0 min 13 W/m 6,4 km/h (2 Bft) 100,00 %
04.09.2021 20:00 18,6 C 17,2 C 15,6 C 83 % 1017,8 hPa 0,0 l/m 0 min 0 min 12 W/m 6,4 km/h (2 Bft) 100,00 %
04.09.2021 20:02 18,5 C 17,2 C 15,6 C 83 % 1017,8 hPa 0,0 l/m 0 min 0 min 11 W/m 3,2 km/h (1 Bft) 100,00 %
04.09.2021 20:04 18,5 C 17,2 C 15,6 C 84 % 1017,8 hPa 0,0 l/m 0 min 0 min 10 W/m 3,2 km/h (1 Bft) 100,00 %
04.09.2021 20:06 18,4 C 17,2 C 15,6 C 84 % 1017,8 hPa 0,0 l/m 0 min 0 min 9 W/m 3,2 km/h (1 Bft) 100,00 %
04.09.2021 20:08 18,4 C 17,2 C 15,6 C 84 % 1017,8 hPa 0,0 l/m 0 min 0 min 7 W/m 6,4 km/h (2 Bft) 100,00 %
04.09.2021 20:10 18,3 C 17,2 C 15,6 C 84 % 1017,8 hPa 0,0 l/m 0 min 0 min 6 W/m 3,2 km/h (1 Bft) 100,00 %
04.09.2021 20:12 18,2 C 17,2 C 15,0 C 84 % 1017,9 hPa 0,0 l/m 0 min 0 min 5 W/m 3,2 km/h (1 Bft) 97,87 %
04.09.2021 20:14 18,1 C 17,2 C 15,0 C 84 % 1017,8 hPa 0,0 l/m 0 min 0 min 4 W/m 6,4 km/h (2 Bft) 100,00 %
04.09.2021 20:16 18,1 C 16,7 C 15,0 C 85 % 1017,9 hPa 0,0 l/m 0 min 0 min 0 W/m 0,0 km/h (0 Bft) 100,00 %
04.09.2021 20:18 18,1 C 16,7 C 15,0 C 85 % 1017,9 hPa 0,0 l/m 0 min 0 min 0 W/m 0,0 km/h (0 Bft) 100,00 %
04.09.2021 20:20 18,0 C 16,7 C 15,0 C 85 % 1017,9 hPa 0,0 l/m 0 min 0 min 0 W/m 0,0 km/h (0 Bft) 97,87 %
04.09.2021 20:22 18,0 C 16,7 C 15,0 C 85 % 1017,9 hPa 0,0 l/m 0 min 0 min 0 W/m 0,0 km/h (0 Bft) 100,00 %
04.09.2021 20:24 18,0 C 16,7 C 15,0 C 85 % 1017,9 hPa 0,0 l/m 0 min 0 min 0 W/m 0,0 km/h (0 Bft) 100,00 %
04.09.2021 20:26 17,9 C 16,7 C 15,0 C 85 % 1017,9 hPa 0,0 l/m 0 min 0 min 0 W/m 0,0 km/h (0 Bft) 97,83 %
04.09.2021 20:28 17,9 C 16,7 C 15,0 C 86 % 1017,9 hPa 0,0 l/m 0 min 0 min 0 W/m 3,2 km/h (1 Bft) 97,87 %
04.09.2021 20:30 17,9 C 16,7 C 15,0 C 86 % 1017,9 hPa 0,0 l/m 0 min 0 min 0 W/m 3,2 km/h (1 Bft) 100,00 %
04.09.2021 20:32 17,9 C 16,7 C 15,0 C 86 % 1018,0 hPa 0,0 l/m 0 min 0 min 0 W/m 3,2 km/h (1 Bft) 97,87 %
04.09.2021 20:34 17,8 C 16,7 C 15,0 C 86 % 1018,1 hPa 0,0 l/m 0 min 0 min 0 W/m 0,0 km/h (0 Bft) 100,00 %
04.09.2021 20:36 17,8 C 16,7 C 15,0 C 86 % 1018,2 hPa 0,0 l/m 0 min 0 min 0 W/m 0,0 km/h (0 Bft) 95,74 %
04.09.2021 20:38 17,8 C 16,7 C 15,0 C 86 % 1018,1 hPa 0,0 l/m 0 min 0 min 0 W/m 0,0 km/h (0 Bft) 97,83 %
04.09.2021 20:40 17,7 C 16,1 C 14,5 C 86 % 1018,2 hPa 0,0 l/m 0 min 0 min 0 W/m 0,0 km/h (0 Bft) 95,74 %
04.09.2021 20:42 17,7 C 16,1 C 14,5 C 87 % 1018,1 hPa 0,0 l/m 0 min 0 min 0 W/m 0,0 km/h (0 Bft) 97,87 %
04.09.2021 20:44 17,6 C 16,1 C 14,5 C 86 % 1018,1 hPa 0,0 l/m 0 min 0 min 0 W/m 0,0 km/h (0 Bft) 97,87 %
04.09.2021 20:46 17,6 C 16,1 C 14,5 C 87 % 1018,2 hPa 0,0 l/m 0 min 0 min 0 W/m 0,0 km/h (0 Bft) 95,74 %
04.09.2021 20:48 17,5 C 16,1 C 14,5 C 87 % 1018,3 hPa 0,0 l/m 0 min 0 min 0 W/m 0,0 km/h (0 Bft) 97,83 %
04.09.2021 20:50 17,5 C 16,1 C 14,5 C 87 % 1018,3 hPa 0,0 l/m 0 min 0 min 0 W/m 0,0 km/h (0 Bft) 95,74 %
04.09.2021 20:52 17,5 C 16,1 C 14,5 C 87 % 1018,3 hPa 0,0 l/m 0 min 0 min 0 W/m 0,0 km/h (0 Bft) 93,75 %
04.09.2021 20:54 17,5 C 16,1 C 14,5 C 87 % 1018,4 hPa 0,0 l/m 0 min 0 min 0 W/m 0,0 km/h (0 Bft) 95,74 %
04.09.2021 20:56 17,4 C 15,6 C 14,5 C 87 % 1018,5 hPa 0,0 l/m 0 min 0 min 0 W/m 0,0 km/h (0 Bft) 93,62 %
04.09.2021 20:58 17,4 C 15,6 C 14,5 C 87 % 1018,5 hPa 0,0 l/m 0 min 0 min 0 W/m 0,0 km/h (0 Bft) 93,62 %
04.09.2021 21:00 17,4 C 15,6 C 14,5 C 87 % 1018,5 hPa 0,0 l/m 0 min 0 min 0 W/m 0,0 km/h (0 Bft) 95,65 %
04.09.2021 21:02 17,4 C 15,6 C 13,9 C 87 % 1018,5 hPa 0,0 l/m 0 min 0 min 0 W/m 0,0 km/h (0 Bft) 95,74 %
04.09.2021 21:04 17,3 C 15,6 C 13,9 C 87 % 1018,6 hPa 0,0 l/m 0 min 0 min 0 W/m 0,0 km/h (0 Bft) 95,74 %
04.09.2021 21:06 17,3 C 15,6 C 13,9 C 87 % 1018,6 hPa 0,0 l/m 0 min 0 min 0 W/m 0,0 km/h (0 Bft) 95,74 %
04.09.2021 21:08 17,3 C 15,6 C 13,9 C 87 % 1018,6 hPa 0,0 l/m 0 min 0 min 0 W/m 0,0 km/h (0 Bft) 93,62 %
04.09.2021 21:10 17,3 C 15,6 C 13,9 C 87 % 1018,5 hPa 0,0 l/m 0 min 0 min 0 W/m 0,0 km/h (0 Bft) 93,62 %
04.09.2021 21:12 17,2 C 15,6 C 13,9 C 87 % 1018,6 hPa 0,0 l/m 0 min 0 min 0 W/m 0,0 km/h (0 Bft) 93,48 %
04.09.2021 21:14 17,1 C 15,6 C 13,9 C 88 % 1018,6 hPa 0,0 l/m 0 min 0 min 0 W/m 3,2 km/h (1 Bft) 91,49 %
04.09.2021 21:16 17,1 C 15,6 C 13,9 C 88 % 1018,6 hPa 0,0 l/m 0 min 0 min 0 W/m 0,0 km/h (0 Bft) 93,62 %
04.09.2021 21:18 17,1 C 15,6 C 13,9 C 88 % 1018,6 hPa 0,0 l/m 0 min 0 min 0 W/m 0,0 km/h (0 Bft) 93,62 %
04.09.2021 21:20 17,0 C 15,6 C 13,9 C 88 % 1018,6 hPa 0,0 l/m 0 min 0 min 0 W/m 0,0 km/h (0 Bft) 95,74 %
04.09.2021 21:22 17,0 C 15,6 C 13,9 C 88 % 1018,6 hPa 0,0 l/m 0 min 0 min 0 W/m 0,0 km/h (0 Bft) 91,49 %
04.09.2021 21:24 17,0 C 15,6 C 13,9 C 88 % 1018,6 hPa 0,0 l/m 0 min 0 min 0 W/m 0,0 km/h (0 Bft) 93,48 %
04.09.2021 21:26 16,9 C 15,6 C 13,9 C 88 % 1018,6 hPa 0,0 l/m 0 min 0 min 0 W/m 0,0 km/h (0 Bft) 93,62 %
04.09.2021 21:28 16,9 C 15,0 C 13,9 C 88 % 1018,5 hPa 0,0 l/m 0 min 0 min 0 W/m 0,0 km/h (0 Bft) 93,62 %
04.09.2021 21:30 16,9 C 15,0 C 13,9 C 88 % 1018,5 hPa 0,0 l/m 0 min 0 min 0 W/m 0,0 km/h (0 Bft) 93,62 %
04.09.2021 21:32 16,9 C 15,0 C 13,9 C 88 % 1018,5 hPa 0,0 l/m 0 min 0 min 0 W/m 0,0 km/h (0 Bft) 91,49 %
04.09.2021 21:34 16,8 C 15,0 C 13,9 C 88 % 1018,6 hPa 0,0 l/m 0 min 0 min 0 W/m 0,0 km/h (0 Bft) 95,65 %
04.09.2021 21:36 16,8 C 15,0 C 13,9 C 89 % 1018,6 hPa 0,0 l/m 0 min 0 min 0 W/m 0,0 km/h (0 Bft) 93,62 %
04.09.2021 21:38 16,7 C 15,0 C 13,9 C 89 % 1018,6 hPa 0,0 l/m 0 min 0 min 0 W/m 3,2 km/h (1 Bft) 97,87 %
04.09.2021 21:40 16,7 C 15,0 C 13,9 C 89 % 1018,7 hPa 0,0 l/m 0 min 0 min 0 W/m 3,2 km/h (1 Bft) 100,00 %
04.09.2021 21:42 16,6 C 15,0 C 13,4 C 89 % 1018,7 hPa 0,0 l/m 0 min 0 min 0 W/m 3,2 km/h (1 Bft) 97,87 %
04.09.2021 21:44 16,6 C 15,0 C 13,4 C 89 % 1018,7 hPa 0,0 l/m 0 min 0 min 0 W/m 0,0 km/h (0 Bft) 100,00 %
04.09.2021 21:46 16,6 C 15,0 C 13,4 C 89 % 1018,7 hPa 0,0 l/m 0 min 0 min 0 W/m 0,0 km/h (0 Bft) 100,00 %
04.09.2021 21:48 16,5 C 15,0 C 13,4 C 89 % 1018,8 hPa 0,0 l/m 0 min 0 min 0 W/m 0,0 km/h (0 Bft) 100,00 %
04.09.2021 21:50 16,5 C 15,0 C 13,4 C 89 % 1018,8 hPa 0,0 l/m 0 min 0 min 0 W/m 0,0 km/h (0 Bft) 97,87 %
04.09.2021 21:52 16,5 C 15,0 C 13,4 C 89 % 1018,8 hPa 0,0 l/m 0 min 0 min 0 W/m 0,0 km/h (0 Bft) 100,00 %
04.09.2021 21:54 16,5 C 15,0 C 13,4 C 89 % 1018,8 hPa 0,0 l/m 0 min 0 min 0 W/m 0,0 km/h (0 Bft) 100,00 %
04.09.2021 21:56 16,5 C 15,0 C 13,4 C 89 % 1018,8 hPa 0,0 l/m 0 min 0 min 0 W/m 0,0 km/h (0 Bft) 100,00 %
04.09.2021 21:58 16,4 C 15,0 C 13,4 C 89 % 1018,8 hPa 0,0 l/m 0 min 0 min 0 W/m 0,0 km/h (0 Bft) 100,00 %
04.09.2021 22:00 16,4 C 15,0 C 13,4 C 89 % 1018,8 hPa 0,0 l/m 0 min 0 min 0 W/m 0,0 km/h (0 Bft) 100,00 %
04.09.2021 22:02 16,4 C 15,0 C 13,4 C 89 % 1018,8 hPa 0,0 l/m 0 min 0 min 0 W/m 0,0 km/h (0 Bft) 97,87 %
04.09.2021 22:04 16,4 C 15,0 C 13,4 C 90 % 1018,8 hPa 0,0 l/m 0 min 0 min 0 W/m 0,0 km/h (0 Bft) 100,00 %
04.09.2021 22:06 16,3 C 15,0 C 13,4 C 90 % 1018,7 hPa 0,0 l/m 0 min 0 min 0 W/m 0,0 km/h (0 Bft) 100,00 %
04.09.2021 22:08 16,3 C 15,0 C 13,4 C 90 % 1018,8 hPa 0,0 l/m 0 min 0 min 0 W/m 0,0 km/h (0 Bft) 97,87 %
04.09.2021 22:10 16,3 C 15,0 C 13,4 C 90 % 1018,8 hPa 0,0 l/m 0 min 0 min 0 W/m 0,0 km/h (0 Bft) 100,00 %
04.09.2021 22:12 16,3 C 15,0 C 13,4 C 90 % 1018,8 hPa 0,0 l/m 0 min 0 min 0 W/m 0,0 km/h (0 Bft) 100,00 %
04.09.2021 22:14 16,2 C 15,0 C 13,4 C 90 % 1018,8 hPa 0,0 l/m 0 min 0 min 0 W/m 3,2 km/h (1 Bft) 100,00 %
04.09.2021 22:16 16,1 C 15,0 C 13,4 C 90 % 1018,8 hPa 0,0 l/m 0 min 0 min 0 W/m 0,0 km/h (0 Bft) 100,00 %
04.09.2021 22:18 16,1 C 15,0 C 13,4 C 90 % 1018,8 hPa 0,0 l/m 0 min 0 min 0 W/m 0,0 km/h (0 Bft) 100,00 %
04.09.2021 22:20 16,1 C 15,0 C 13,4 C 90 % 1018,8 hPa 0,0 l/m 0 min 0 min 0 W/m 3,2 km/h (1 Bft) 100,00 %
04.09.2021 22:22 16,1 C 15,0 C 13,4 C 90 % 1018,8 hPa 0,0 l/m 0 min 0 min 0 W/m 3,2 km/h (1 Bft) 100,00 %
04.09.2021 22:24 16,1 C 15,0 C 13,4 C 91 % 1018,8 hPa 0,0 l/m 0 min 0 min 0 W/m 3,2 km/h (1 Bft) 97,87 %
04.09.2021 22:26 16,1 C 15,0 C 13,4 C 91 % 1018,9 hPa 0,0 l/m 0 min 0 min 0 W/m 3,2 km/h (1 Bft) 100,00 %
04.09.2021 22:28 16,0 C 15,0 C 13,4 C 91 % 1018,9 hPa 0,0 l/m 0 min 0 min 0 W/m 3,2 km/h (1 Bft) 100,00 %
04.09.2021 22:30 16,0 C 15,0 C 13,4 C 91 % 1018,9 hPa 0,0 l/m 0 min 0 min 0 W/m 3,2 km/h (1 Bft) 100,00 %
04.09.2021 22:32 16,0 C 15,0 C 13,4 C 91 % 1018,9 hPa 0,0 l/m 0 min 0 min 0 W/m 3,2 km/h (1 Bft) 100,00 %
04.09.2021 22:34 16,0 C 15,0 C 13,4 C 91 % 1018,9 hPa 0,0 l/m 0 min 0 min 0 W/m 0,0 km/h (0 Bft) 100,00 %
04.09.2021 22:36 16,0 C 15,0 C 13,4 C 91 % 1018,9 hPa 0,0 l/m 0 min 0 min 0 W/m 3,2 km/h (1 Bft) 100,00 %
04.09.2021 22:38 16,0 C 15,0 C 13,4 C 91 % 1018,9 hPa 0,0 l/m 0 min 0 min 0 W/m 3,2 km/h (1 Bft) 100,00 %
04.09.2021 22:40 16,0 C 15,0 C 13,4 C 91 % 1018,9 hPa 0,0 l/m 0 min 0 min 0 W/m 3,2 km/h (1 Bft) 100,00 %
04.09.2021 22:42 16,0 C 15,0 C 13,9 C 91 % 1018,9 hPa 0,0 l/m 0 min 0 min 0 W/m 6,4 km/h (2 Bft) 100,00 %
04.09.2021 22:44 16,0 C 15,0 C 13,4 C 91 % 1018,9 hPa 0,0 l/m 0 min 0 min 0 W/m 3,2 km/h (1 Bft) 95,65 %
04.09.2021 22:46 16,0 C 15,0 C 13,4 C 91 % 1018,9 hPa 0,0 l/m 0 min 0 min 0 W/m 3,2 km/h (1 Bft) 100,00 %
04.09.2021 22:48 15,9 C 15,0 C 13,4 C 91 % 1018,9 hPa 0,0 l/m 0 min 0 min 0 W/m 3,2 km/h (1 Bft) 100,00 %
04.09.2021 22:50 15,9 C 15,0 C 13,4 C 91 % 1018,9 hPa 0,0 l/m 0 min 0 min 0 W/m 0,0 km/h (0 Bft) 100,00 %
04.09.2021 22:52 15,9 C 15,0 C 13,4 C 91 % 1018,8 hPa 0,0 l/m 0 min 0 min 0 W/m 0,0 km/h (0 Bft) 97,92 %
04.09.2021 22:54 15,9 C 15,0 C 13,4 C 91 % 1018,9 hPa 0,0 l/m 0 min 0 min 0 W/m 0,0 km/h (0 Bft) 95,74 %
04.09.2021 22:56 15,9 C 15,0 C 13,4 C 91 % 1018,9 hPa 0,0 l/m 0 min 0 min 0 W/m 0,0 km/h (0 Bft) 97,83 %
04.09.2021 22:58 15,9 C 15,0 C 13,4 C 91 % 1018,8 hPa 0,0 l/m 0 min 0 min 0 W/m 0,0 km/h (0 Bft) 95,74 %
04.09.2021 23:00 15,9 C 15,0 C 13,4 C 91 % 1018,8 hPa 0,0 l/m 0 min 0 min 0 W/m 0,0 km/h (0 Bft) 95,74 %
04.09.2021 23:02 15,9 C 15,0 C 13,4 C 92 % 1018,8 hPa 0,0 l/m 0 min 0 min 0 W/m 0,0 km/h (0 Bft) 95,74 %
04.09.2021 23:04 15,9 C 15,0 C 13,4 C 92 % 1018,8 hPa 0,0 l/m 0 min 0 min 0 W/m 6,4 km/h (2 Bft) 95,74 %
04.09.2021 23:06 15,9 C 15,0 C 13,4 C 92 % 1018,8 hPa 0,0 l/m 0 min 0 min 0 W/m 3,2 km/h (1 Bft) 95,74 %
04.09.2021 23:08 15,9 C 15,0 C 13,4 C 92 % 1018,8 hPa 0,0 l/m 0 min 0 min 0 W/m 3,2 km/h (1 Bft) 95,65 %
04.09.2021 23:10 15,9 C 15,0 C 13,4 C 92 % 1018,8 hPa 0,0 l/m 0 min 0 min 0 W/m 6,4 km/h (2 Bft) 93,62 %
04.09.2021 23:12 15,9 C 15,0 C 13,4 C 92 % 1018,8 hPa 0,0 l/m 0 min 0 min 0 W/m 3,2 km/h (1 Bft) 95,74 %
04.09.2021 23:14 15,9 C 15,0 C 13,4 C 92 % 1018,9 hPa 0,0 l/m 0 min 0 min 0 W/m 3,2 km/h (1 Bft) 95,74 %
04.09.2021 23:16 15,9 C 15,0 C 13,4 C 92 % 1018,9 hPa 0,0 l/m 0 min 0 min 0 W/m 3,2 km/h (1 Bft) 95,74 %
04.09.2021 23:18 15,8 C 15,0 C 13,4 C 92 % 1018,9 hPa 0,0 l/m 0 min 0 min 0 W/m 0,0 km/h (0 Bft) 95,74 %
04.09.2021 23:20 15,8 C 15,0 C 13,4 C 92 % 1018,9 hPa 0,0 l/m 0 min 0 min 0 W/m 3,2 km/h (1 Bft) 94,74 %
04.09.2021 23:22 15,8 C 15,0 C 13,4 C 92 % 1019,0 hPa 0,0 l/m 0 min 0 min 0 W/m 3,2 km/h (1 Bft) 95,65 %
04.09.2021 23:24 15,8 C 15,0 C 13,4 C 92 % 1018,9 hPa 0,0 l/m 0 min 0 min 0 W/m 3,2 km/h (1 Bft) 97,87 %
04.09.2021 23:26 15,8 C 15,0 C 13,4 C 92 % 1019,0 hPa 0,0 l/m 0 min 0 min 0 W/m 0,0 km/h (0 Bft) 97,87 %
04.09.2021 23:28 15,8 C 15,0 C 13,4 C 92 % 1019,0 hPa 0,0 l/m 0 min 0 min 0 W/m 3,2 km/h (1 Bft) 97,87 %
04.09.2021 23:30 15,8 C 15,0 C 13,4 C 92 % 1019,0 hPa 0,0 l/m 0 min 0 min 0 W/m 3,2 km/h (1 Bft) 95,74 %
04.09.2021 23:32 15,8 C 15,0 C 13,4 C 92 % 1019,0 hPa 0,0 l/m 0 min 0 min 0 W/m 3,2 km/h (1 Bft) 97,87 %
04.09.2021 23:34 15,8 C 15,0 C 13,4 C 92 % 1019,0 hPa 0,0 l/m 0 min 0 min 0 W/m 3,2 km/h (1 Bft) 100,00 %
04.09.2021 23:36 15,8 C 15,0 C 13,4 C 92 % 1018,9 hPa 0,0 l/m 0 min 0 min 0 W/m 3,2 km/h (1 Bft) 100,00 %
04.09.2021 23:38 15,7 C 15,0 C 13,4 C 92 % 1018,9 hPa 0,0 l/m 0 min 0 min 0 W/m 3,2 km/h (1 Bft) 100,00 %
04.09.2021 23:40 15,7 C 15,0 C 13,4 C 91 % 1018,9 hPa 0,0 l/m 0 min 0 min 0 W/m 6,4 km/h (2 Bft) 100,00 %
04.09.2021 23:42 15,7 C 15,0 C 13,4 C 92 % 1018,9 hPa 0,0 l/m 0 min 0 min 0 W/m 3,2 km/h (1 Bft) 100,00 %
04.09.2021 23:44 15,7 C 15,0 C 13,4 C 92 % 1018,9 hPa 0,0 l/m 0 min 0 min 0 W/m 3,2 km/h (1 Bft) 100,00 %
04.09.2021 23:46 15,7 C 15,0 C 13,4 C 92 % 1018,9 hPa 0,0 l/m 0 min 0 min 0 W/m 0,0 km/h (0 Bft) 97,87 %
04.09.2021 23:48 15,7 C 15,0 C 13,4 C 92 % 1018,9 hPa 0,0 l/m 0 min 0 min 0 W/m 3,2 km/h (1 Bft) 100,00 %
04.09.2021 23:50 15,7 C 15,0 C 13,4 C 92 % 1018,9 hPa 0,0 l/m 0 min 0 min 0 W/m 3,2 km/h (1 Bft) 100,00 %
04.09.2021 23:52 15,7 C 15,0 C 13,4 C 92 % 1018,9 hPa 0,0 l/m 0 min 0 min 0 W/m 3,2 km/h (1 Bft) 97,87 %
04.09.2021 23:54 15,6 C 15,0 C 13,4 C 92 % 1018,9 hPa 0,0 l/m 0 min 0 min 0 W/m 0,0 km/h (0 Bft) 100,00 %
04.09.2021 23:56 15,6 C 15,0 C 13,4 C 92 % 1018,9 hPa 0,0 l/m 0 min 0 min 0 W/m 3,2 km/h (1 Bft) 97,83 %
04.09.2021 23:58 15,6 C 14,4 C 13,4 C 92 % 1018,9 hPa 0,0 l/m 0 min 0 min 0 W/m 3,2 km/h (1 Bft) 100,00 %
_ Min-Zeit 08:16 06:20 04:58 16:28 18:28 - - - - 00:48 00:16
Minimum _ 13,8 C 12,8 C 12,3 C 75 % 1017,6 hPa - - - - 0,0 km/h (0 Bft) 45,95 %
_ Max-Zeit 17:16 16:20 16:46 07:00 11:16 00:00 12:08 00:00 13:34 13:34 00:18
Maximum _ 21,2 C 27,8 C 18,9 C 96 % 1019,4 hPa 0,0 l/m 4 min 0 min 730 W/m 22,5 km/h
O-NO (4 Bft)
100,00 %
Durchschnitt _ 16,8 C 17,4 C 14,7 C 87 % 1018,5 hPa #0,0 l/m #6:48 h #0 min. 306 W/m 7,6 km/h (2 Bft) 97,39 %
© 2021 W. Hausmann